<?xml version="1.0" encoding="UTF-8" standalone="no" ?>
<gpx xmlns="http://www.topografix.com/GPX/1/1" xmlns:xsi="http://www.w3.org/2001/XMLSchema-instance" xsi:schemaLocation="http://www.topografix.com/GPX/1/1 http://www.topografix.com/GPX/1/1/gpx.xsd" version="1.1" creator="VisuGPX - https://www.visugpx.com">
  <metadata>
    <name>LA VALLÉE DE LUNAIN</name>
    <desc><![CDATA[La Vallée de Lunain avec J-C GRENE]]></desc>
  </metadata>
  <trk>
    <name><![CDATA[--Nanteau-sur-Lunain-- OR-6026887:La vallée de Lunain]]></name>
    <trkseg>
      <trkpt lat="48.25868" lon="2.81237">
        <ele>78</ele>
        <time>2016-05-01T19:48:38Z</time>
      </trkpt>
      <trkpt lat="48.2592" lon="2.81143">
        <ele>75</ele>
        <time>2016-05-01T19:50:38Z</time>
      </trkpt>
      <trkpt lat="48.25755" lon="2.80909">
        <ele>76</ele>
        <time>2016-05-01T19:52:38Z</time>
      </trkpt>
      <trkpt lat="48.25739" lon="2.80937">
        <ele>77</ele>
        <time>2016-05-01T19:54:38Z</time>
      </trkpt>
      <trkpt lat="48.25727" lon="2.81026">
        <ele>76</ele>
        <time>2016-05-01T19:56:38Z</time>
      </trkpt>
      <trkpt lat="48.2572" lon="2.81039">
        <ele>77</ele>
        <time>2016-05-01T19:58:38Z</time>
      </trkpt>
      <trkpt lat="48.25708" lon="2.81044">
        <ele>77</ele>
        <time>2016-05-01T20:00:38Z</time>
      </trkpt>
      <trkpt lat="48.25705" lon="2.81107">
        <ele>78</ele>
        <time>2016-05-01T20:02:38Z</time>
      </trkpt>
      <trkpt lat="48.25701" lon="2.81155">
        <ele>78</ele>
        <time>2016-05-01T20:04:38Z</time>
      </trkpt>
      <trkpt lat="48.25697" lon="2.81189">
        <ele>79</ele>
        <time>2016-05-01T20:06:38Z</time>
      </trkpt>
      <trkpt lat="48.25693" lon="2.81212">
        <ele>79</ele>
        <time>2016-05-01T20:08:38Z</time>
      </trkpt>
      <trkpt lat="48.25689" lon="2.81231">
        <ele>79</ele>
        <time>2016-05-01T20:10:38Z</time>
      </trkpt>
      <trkpt lat="48.25681" lon="2.81243">
        <ele>79</ele>
        <time>2016-05-01T20:12:38Z</time>
      </trkpt>
      <trkpt lat="48.2567" lon="2.81264">
        <ele>78</ele>
        <time>2016-05-01T20:14:38Z</time>
      </trkpt>
      <trkpt lat="48.25666" lon="2.81285">
        <ele>79</ele>
        <time>2016-05-01T20:16:38Z</time>
      </trkpt>
      <trkpt lat="48.25658" lon="2.81326">
        <ele>80</ele>
        <time>2016-05-01T20:18:38Z</time>
      </trkpt>
      <trkpt lat="48.25652" lon="2.81359">
        <ele>80</ele>
        <time>2016-05-01T20:20:38Z</time>
      </trkpt>
      <trkpt lat="48.25637" lon="2.81417">
        <ele>80</ele>
        <time>2016-05-01T20:22:38Z</time>
      </trkpt>
      <trkpt lat="48.25622" lon="2.81461">
        <ele>80</ele>
        <time>2016-05-01T20:24:38Z</time>
      </trkpt>
      <trkpt lat="48.25605" lon="2.81516">
        <ele>79</ele>
        <time>2016-05-01T20:26:38Z</time>
      </trkpt>
      <trkpt lat="48.25597" lon="2.81537">
        <ele>78</ele>
        <time>2016-05-01T20:28:38Z</time>
      </trkpt>
      <trkpt lat="48.25579" lon="2.81611">
        <ele>76</ele>
        <time>2016-05-01T20:30:38Z</time>
      </trkpt>
      <trkpt lat="48.25562" lon="2.81659">
        <ele>76</ele>
        <time>2016-05-01T20:32:38Z</time>
      </trkpt>
      <trkpt lat="48.25544" lon="2.81713">
        <ele>78</ele>
        <time>2016-05-01T20:34:38Z</time>
      </trkpt>
      <trkpt lat="48.25536" lon="2.81746">
        <ele>79</ele>
        <time>2016-05-01T20:36:38Z</time>
      </trkpt>
      <trkpt lat="48.25527" lon="2.81791">
        <ele>80</ele>
        <time>2016-05-01T20:38:38Z</time>
      </trkpt>
      <trkpt lat="48.25521" lon="2.81835">
        <ele>81</ele>
        <time>2016-05-01T20:40:38Z</time>
      </trkpt>
      <trkpt lat="48.25517" lon="2.81861">
        <ele>81</ele>
        <time>2016-05-01T20:42:38Z</time>
      </trkpt>
      <trkpt lat="48.2551" lon="2.81896">
        <ele>81</ele>
        <time>2016-05-01T20:44:38Z</time>
      </trkpt>
      <trkpt lat="48.25504" lon="2.81922">
        <ele>81</ele>
        <time>2016-05-01T20:46:38Z</time>
      </trkpt>
      <trkpt lat="48.25493" lon="2.81966">
        <ele>81</ele>
        <time>2016-05-01T20:48:38Z</time>
      </trkpt>
      <trkpt lat="48.25487" lon="2.81986">
        <ele>81</ele>
        <time>2016-05-01T20:50:38Z</time>
      </trkpt>
      <trkpt lat="48.25482" lon="2.8201">
        <ele>81</ele>
        <time>2016-05-01T20:52:38Z</time>
      </trkpt>
      <trkpt lat="48.25477" lon="2.82029">
        <ele>81</ele>
        <time>2016-05-01T20:54:38Z</time>
      </trkpt>
      <trkpt lat="48.25466" lon="2.82058">
        <ele>81</ele>
        <time>2016-05-01T20:56:38Z</time>
      </trkpt>
      <trkpt lat="48.25455" lon="2.82082">
        <ele>80</ele>
        <time>2016-05-01T20:58:38Z</time>
      </trkpt>
      <trkpt lat="48.25437" lon="2.82112">
        <ele>79</ele>
        <time>2016-05-01T21:00:38Z</time>
      </trkpt>
      <trkpt lat="48.25431" lon="2.82121">
        <ele>79</ele>
        <time>2016-05-01T21:02:38Z</time>
      </trkpt>
      <trkpt lat="48.25421" lon="2.82138">
        <ele>79</ele>
        <time>2016-05-01T21:04:38Z</time>
      </trkpt>
      <trkpt lat="48.25409" lon="2.82148">
        <ele>80</ele>
        <time>2016-05-01T21:06:38Z</time>
      </trkpt>
      <trkpt lat="48.25396" lon="2.82163">
        <ele>80</ele>
        <time>2016-05-01T21:08:38Z</time>
      </trkpt>
      <trkpt lat="48.25388" lon="2.82176">
        <ele>80</ele>
        <time>2016-05-01T21:10:38Z</time>
      </trkpt>
      <trkpt lat="48.25381" lon="2.82199">
        <ele>79</ele>
        <time>2016-05-01T21:12:38Z</time>
      </trkpt>
      <trkpt lat="48.25374" lon="2.82215">
        <ele>78</ele>
        <time>2016-05-01T21:14:38Z</time>
      </trkpt>
      <trkpt lat="48.25367" lon="2.82233">
        <ele>78</ele>
        <time>2016-05-01T21:16:38Z</time>
      </trkpt>
      <trkpt lat="48.25355" lon="2.82255">
        <ele>77</ele>
        <time>2016-05-01T21:18:38Z</time>
      </trkpt>
      <trkpt lat="48.25347" lon="2.82267">
        <ele>76</ele>
        <time>2016-05-01T21:20:38Z</time>
      </trkpt>
      <trkpt lat="48.25342" lon="2.82276">
        <ele>76</ele>
        <time>2016-05-01T21:22:38Z</time>
      </trkpt>
      <trkpt lat="48.25331" lon="2.82283">
        <ele>77</ele>
        <time>2016-05-01T21:24:38Z</time>
      </trkpt>
      <trkpt lat="48.25322" lon="2.82283">
        <ele>77</ele>
        <time>2016-05-01T21:26:38Z</time>
      </trkpt>
      <trkpt lat="48.25312" lon="2.82274">
        <ele>78</ele>
        <time>2016-05-01T21:28:38Z</time>
      </trkpt>
      <trkpt lat="48.25279" lon="2.8223">
        <ele>84</ele>
        <time>2016-05-01T21:30:38Z</time>
      </trkpt>
      <trkpt lat="48.25273" lon="2.82228">
        <ele>85</ele>
        <time>2016-05-01T21:32:38Z</time>
      </trkpt>
      <trkpt lat="48.25267" lon="2.82229">
        <ele>85</ele>
        <time>2016-05-01T21:34:38Z</time>
      </trkpt>
      <trkpt lat="48.2524" lon="2.82272">
        <ele>84</ele>
        <time>2016-05-01T21:36:38Z</time>
      </trkpt>
      <trkpt lat="48.25229" lon="2.82291">
        <ele>84</ele>
        <time>2016-05-01T21:38:38Z</time>
      </trkpt>
      <trkpt lat="48.25217" lon="2.82308">
        <ele>84</ele>
        <time>2016-05-01T21:40:38Z</time>
      </trkpt>
      <trkpt lat="48.25202" lon="2.82327">
        <ele>84</ele>
        <time>2016-05-01T21:42:38Z</time>
      </trkpt>
      <trkpt lat="48.25194" lon="2.82339">
        <ele>84</ele>
        <time>2016-05-01T21:44:38Z</time>
      </trkpt>
      <trkpt lat="48.25181" lon="2.82352">
        <ele>85</ele>
        <time>2016-05-01T21:46:38Z</time>
      </trkpt>
      <trkpt lat="48.25169" lon="2.82373">
        <ele>84</ele>
        <time>2016-05-01T21:48:38Z</time>
      </trkpt>
      <trkpt lat="48.25162" lon="2.82391">
        <ele>84</ele>
        <time>2016-05-01T21:50:38Z</time>
      </trkpt>
      <trkpt lat="48.25122" lon="2.82507">
        <ele>86</ele>
        <time>2016-05-01T21:52:38Z</time>
      </trkpt>
      <trkpt lat="48.25119" lon="2.82532">
        <ele>84</ele>
        <time>2016-05-01T21:54:38Z</time>
      </trkpt>
      <trkpt lat="48.25111" lon="2.82568">
        <ele>82</ele>
        <time>2016-05-01T21:56:38Z</time>
      </trkpt>
      <trkpt lat="48.25104" lon="2.82609">
        <ele>80</ele>
        <time>2016-05-01T21:58:38Z</time>
      </trkpt>
      <trkpt lat="48.25097" lon="2.82641">
        <ele>80</ele>
        <time>2016-05-01T22:00:38Z</time>
      </trkpt>
      <trkpt lat="48.25091" lon="2.8267">
        <ele>79</ele>
        <time>2016-05-01T22:02:38Z</time>
      </trkpt>
      <trkpt lat="48.25084" lon="2.82699">
        <ele>79</ele>
        <time>2016-05-01T22:04:38Z</time>
      </trkpt>
      <trkpt lat="48.25064" lon="2.82779">
        <ele>80</ele>
        <time>2016-05-01T22:06:38Z</time>
      </trkpt>
      <trkpt lat="48.25052" lon="2.82818">
        <ele>81</ele>
        <time>2016-05-01T22:08:38Z</time>
      </trkpt>
      <trkpt lat="48.25041" lon="2.82861">
        <ele>84</ele>
        <time>2016-05-01T22:10:38Z</time>
      </trkpt>
      <trkpt lat="48.25032" lon="2.82886">
        <ele>86</ele>
        <time>2016-05-01T22:12:38Z</time>
      </trkpt>
      <trkpt lat="48.25019" lon="2.82922">
        <ele>89</ele>
        <time>2016-05-01T22:14:38Z</time>
      </trkpt>
      <trkpt lat="48.25011" lon="2.82944">
        <ele>90</ele>
        <time>2016-05-01T22:16:38Z</time>
      </trkpt>
      <trkpt lat="48.25002" lon="2.82963">
        <ele>91</ele>
        <time>2016-05-01T22:18:38Z</time>
      </trkpt>
      <trkpt lat="48.24996" lon="2.8298">
        <ele>91</ele>
        <time>2016-05-01T22:20:38Z</time>
      </trkpt>
      <trkpt lat="48.24977" lon="2.83016">
        <ele>95</ele>
        <time>2016-05-01T22:22:38Z</time>
      </trkpt>
      <trkpt lat="48.24966" lon="2.83036">
        <ele>96</ele>
        <time>2016-05-01T22:24:38Z</time>
      </trkpt>
      <trkpt lat="48.24962" lon="2.83055">
        <ele>95</ele>
        <time>2016-05-01T22:26:38Z</time>
      </trkpt>
      <trkpt lat="48.24956" lon="2.83069">
        <ele>96</ele>
        <time>2016-05-01T22:28:38Z</time>
      </trkpt>
      <trkpt lat="48.24949" lon="2.83088">
        <ele>96</ele>
        <time>2016-05-01T22:30:38Z</time>
      </trkpt>
      <trkpt lat="48.2494" lon="2.83114">
        <ele>97</ele>
        <time>2016-05-01T22:32:38Z</time>
      </trkpt>
      <trkpt lat="48.24929" lon="2.8315">
        <ele>96</ele>
        <time>2016-05-01T22:34:38Z</time>
      </trkpt>
      <trkpt lat="48.24908" lon="2.8323">
        <ele>94</ele>
        <time>2016-05-01T22:36:38Z</time>
      </trkpt>
      <trkpt lat="48.24901" lon="2.83267">
        <ele>94</ele>
        <time>2016-05-01T22:38:38Z</time>
      </trkpt>
      <trkpt lat="48.24899" lon="2.83288">
        <ele>94</ele>
        <time>2016-05-01T22:40:38Z</time>
      </trkpt>
      <trkpt lat="48.24898" lon="2.8331">
        <ele>93</ele>
        <time>2016-05-01T22:42:38Z</time>
      </trkpt>
      <trkpt lat="48.24898" lon="2.83337">
        <ele>92</ele>
        <time>2016-05-01T22:44:38Z</time>
      </trkpt>
      <trkpt lat="48.24896" lon="2.83353">
        <ele>93</ele>
        <time>2016-05-01T22:46:38Z</time>
      </trkpt>
      <trkpt lat="48.24892" lon="2.83376">
        <ele>94</ele>
        <time>2016-05-01T22:48:38Z</time>
      </trkpt>
      <trkpt lat="48.24887" lon="2.83402">
        <ele>95</ele>
        <time>2016-05-01T22:50:38Z</time>
      </trkpt>
      <trkpt lat="48.24883" lon="2.83422">
        <ele>96</ele>
        <time>2016-05-01T22:52:38Z</time>
      </trkpt>
      <trkpt lat="48.24877" lon="2.83427">
        <ele>98</ele>
        <time>2016-05-01T22:54:38Z</time>
      </trkpt>
      <trkpt lat="48.2488" lon="2.83437">
        <ele>97</ele>
        <time>2016-05-01T22:56:38Z</time>
      </trkpt>
      <trkpt lat="48.24879" lon="2.83453">
        <ele>97</ele>
        <time>2016-05-01T22:58:38Z</time>
      </trkpt>
      <trkpt lat="48.24873" lon="2.83495">
        <ele>97</ele>
        <time>2016-05-01T23:00:38Z</time>
      </trkpt>
      <trkpt lat="48.24868" lon="2.83533">
        <ele>98</ele>
        <time>2016-05-01T23:02:38Z</time>
      </trkpt>
      <trkpt lat="48.24864" lon="2.83589">
        <ele>98</ele>
        <time>2016-05-01T23:04:38Z</time>
      </trkpt>
      <trkpt lat="48.24863" lon="2.83609">
        <ele>97</ele>
        <time>2016-05-01T23:06:38Z</time>
      </trkpt>
      <trkpt lat="48.24866" lon="2.83629">
        <ele>96</ele>
        <time>2016-05-01T23:08:38Z</time>
      </trkpt>
      <trkpt lat="48.24864" lon="2.83661">
        <ele>96</ele>
        <time>2016-05-01T23:10:38Z</time>
      </trkpt>
      <trkpt lat="48.24862" lon="2.83705">
        <ele>96</ele>
        <time>2016-05-01T23:12:38Z</time>
      </trkpt>
      <trkpt lat="48.24864" lon="2.83723">
        <ele>96</ele>
        <time>2016-05-01T23:14:38Z</time>
      </trkpt>
      <trkpt lat="48.24867" lon="2.83743">
        <ele>96</ele>
        <time>2016-05-01T23:16:38Z</time>
      </trkpt>
      <trkpt lat="48.24881" lon="2.83812">
        <ele>95</ele>
        <time>2016-05-01T23:18:38Z</time>
      </trkpt>
      <trkpt lat="48.24885" lon="2.8388">
        <ele>95</ele>
        <time>2016-05-01T23:20:38Z</time>
      </trkpt>
      <trkpt lat="48.24884" lon="2.83902">
        <ele>95</ele>
        <time>2016-05-01T23:22:38Z</time>
      </trkpt>
      <trkpt lat="48.24868" lon="2.84031">
        <ele>97</ele>
        <time>2016-05-01T23:24:38Z</time>
      </trkpt>
      <trkpt lat="48.24863" lon="2.8404">
        <ele>97</ele>
        <time>2016-05-01T23:26:38Z</time>
      </trkpt>
      <trkpt lat="48.24871" lon="2.84058">
        <ele>95</ele>
        <time>2016-05-01T23:28:38Z</time>
      </trkpt>
      <trkpt lat="48.24877" lon="2.84088">
        <ele>94</ele>
        <time>2016-05-01T23:30:38Z</time>
      </trkpt>
      <trkpt lat="48.24876" lon="2.84113">
        <ele>93</ele>
        <time>2016-05-01T23:32:38Z</time>
      </trkpt>
      <trkpt lat="48.24868" lon="2.84158">
        <ele>91</ele>
        <time>2016-05-01T23:34:38Z</time>
      </trkpt>
      <trkpt lat="48.24857" lon="2.84182">
        <ele>91</ele>
        <time>2016-05-01T23:36:38Z</time>
      </trkpt>
      <trkpt lat="48.24848" lon="2.84195">
        <ele>91</ele>
        <time>2016-05-01T23:38:38Z</time>
      </trkpt>
      <trkpt lat="48.24832" lon="2.84209">
        <ele>92</ele>
        <time>2016-05-01T23:40:38Z</time>
      </trkpt>
      <trkpt lat="48.24816" lon="2.84229">
        <ele>93</ele>
        <time>2016-05-01T23:42:38Z</time>
      </trkpt>
      <trkpt lat="48.24801" lon="2.8425">
        <ele>94</ele>
        <time>2016-05-01T23:44:38Z</time>
      </trkpt>
      <trkpt lat="48.24786" lon="2.84275">
        <ele>94</ele>
        <time>2016-05-01T23:46:38Z</time>
      </trkpt>
      <trkpt lat="48.24771" lon="2.8429">
        <ele>95</ele>
        <time>2016-05-01T23:48:38Z</time>
      </trkpt>
      <trkpt lat="48.2476" lon="2.84295">
        <ele>95</ele>
        <time>2016-05-01T23:50:38Z</time>
      </trkpt>
      <trkpt lat="48.24748" lon="2.84285">
        <ele>98</ele>
        <time>2016-05-01T23:52:38Z</time>
      </trkpt>
      <trkpt lat="48.24733" lon="2.8428">
        <ele>100</ele>
        <time>2016-05-01T23:54:38Z</time>
      </trkpt>
      <trkpt lat="48.24719" lon="2.84285">
        <ele>100</ele>
        <time>2016-05-01T23:56:38Z</time>
      </trkpt>
      <trkpt lat="48.24703" lon="2.84297">
        <ele>100</ele>
        <time>2016-05-01T23:58:38Z</time>
      </trkpt>
      <trkpt lat="48.24696" lon="2.84309">
        <ele>99</ele>
        <time>2016-05-02T00:00:38Z</time>
      </trkpt>
      <trkpt lat="48.24685" lon="2.84327">
        <ele>98</ele>
        <time>2016-05-02T00:02:38Z</time>
      </trkpt>
      <trkpt lat="48.24682" lon="2.84353">
        <ele>97</ele>
        <time>2016-05-02T00:04:38Z</time>
      </trkpt>
      <trkpt lat="48.2468" lon="2.84399">
        <ele>94</ele>
        <time>2016-05-02T00:06:38Z</time>
      </trkpt>
      <trkpt lat="48.24679" lon="2.84432">
        <ele>93</ele>
        <time>2016-05-02T00:08:38Z</time>
      </trkpt>
      <trkpt lat="48.24677" lon="2.84465">
        <ele>92</ele>
        <time>2016-05-02T00:10:38Z</time>
      </trkpt>
      <trkpt lat="48.24675" lon="2.84481">
        <ele>91</ele>
        <time>2016-05-02T00:12:38Z</time>
      </trkpt>
      <trkpt lat="48.24666" lon="2.84513">
        <ele>91</ele>
        <time>2016-05-02T00:14:38Z</time>
      </trkpt>
      <trkpt lat="48.24658" lon="2.84537">
        <ele>92</ele>
        <time>2016-05-02T00:16:38Z</time>
      </trkpt>
      <trkpt lat="48.24652" lon="2.84558">
        <ele>93</ele>
        <time>2016-05-02T00:18:38Z</time>
      </trkpt>
      <trkpt lat="48.24645" lon="2.84581">
        <ele>94</ele>
        <time>2016-05-02T00:20:38Z</time>
      </trkpt>
      <trkpt lat="48.24644" lon="2.846">
        <ele>95</ele>
        <time>2016-05-02T00:22:38Z</time>
      </trkpt>
      <trkpt lat="48.24645" lon="2.84616">
        <ele>95</ele>
        <time>2016-05-02T00:24:38Z</time>
      </trkpt>
      <trkpt lat="48.24647" lon="2.84649">
        <ele>94</ele>
        <time>2016-05-02T00:26:38Z</time>
      </trkpt>
      <trkpt lat="48.24648" lon="2.84719">
        <ele>93</ele>
        <time>2016-05-02T00:28:38Z</time>
      </trkpt>
      <trkpt lat="48.24648" lon="2.84792">
        <ele>91</ele>
        <time>2016-05-02T00:30:38Z</time>
      </trkpt>
      <trkpt lat="48.24647" lon="2.84846">
        <ele>90</ele>
        <time>2016-05-02T00:32:38Z</time>
      </trkpt>
      <trkpt lat="48.24645" lon="2.84862">
        <ele>90</ele>
        <time>2016-05-02T00:34:38Z</time>
      </trkpt>
      <trkpt lat="48.24638" lon="2.84907">
        <ele>91</ele>
        <time>2016-05-02T00:36:38Z</time>
      </trkpt>
      <trkpt lat="48.24632" lon="2.84931">
        <ele>92</ele>
        <time>2016-05-02T00:38:38Z</time>
      </trkpt>
      <trkpt lat="48.2463" lon="2.84944">
        <ele>92</ele>
        <time>2016-05-02T00:40:38Z</time>
      </trkpt>
      <trkpt lat="48.24637" lon="2.84939">
        <ele>91</ele>
        <time>2016-05-02T00:42:38Z</time>
      </trkpt>
      <trkpt lat="48.24645" lon="2.84934">
        <ele>90</ele>
        <time>2016-05-02T00:44:38Z</time>
      </trkpt>
      <trkpt lat="48.24654" lon="2.84932">
        <ele>88</ele>
        <time>2016-05-02T00:46:38Z</time>
      </trkpt>
      <trkpt lat="48.24667" lon="2.84947">
        <ele>85</ele>
        <time>2016-05-02T00:48:38Z</time>
      </trkpt>
      <trkpt lat="48.24662" lon="2.84944">
        <ele>86</ele>
        <time>2016-05-02T00:50:38Z</time>
      </trkpt>
      <trkpt lat="48.24653" lon="2.84936">
        <ele>88</ele>
        <time>2016-05-02T00:52:38Z</time>
      </trkpt>
      <trkpt lat="48.24642" lon="2.84938">
        <ele>90</ele>
        <time>2016-05-02T00:54:38Z</time>
      </trkpt>
      <trkpt lat="48.24635" lon="2.84943">
        <ele>91</ele>
        <time>2016-05-02T00:56:38Z</time>
      </trkpt>
      <trkpt lat="48.24627" lon="2.84952">
        <ele>93</ele>
        <time>2016-05-02T00:58:38Z</time>
      </trkpt>
      <trkpt lat="48.24622" lon="2.84968">
        <ele>93</ele>
        <time>2016-05-02T01:00:38Z</time>
      </trkpt>
      <trkpt lat="48.24614" lon="2.85003">
        <ele>94</ele>
        <time>2016-05-02T01:02:38Z</time>
      </trkpt>
      <trkpt lat="48.24605" lon="2.85035">
        <ele>94</ele>
        <time>2016-05-02T01:04:38Z</time>
      </trkpt>
      <trkpt lat="48.24599" lon="2.85061">
        <ele>95</ele>
        <time>2016-05-02T01:06:38Z</time>
      </trkpt>
      <trkpt lat="48.24593" lon="2.85082">
        <ele>95</ele>
        <time>2016-05-02T01:08:38Z</time>
      </trkpt>
      <trkpt lat="48.24585" lon="2.85102">
        <ele>95</ele>
        <time>2016-05-02T01:10:38Z</time>
      </trkpt>
      <trkpt lat="48.24577" lon="2.8512">
        <ele>96</ele>
        <time>2016-05-02T01:12:38Z</time>
      </trkpt>
      <trkpt lat="48.24569" lon="2.8514">
        <ele>96</ele>
        <time>2016-05-02T01:14:38Z</time>
      </trkpt>
      <trkpt lat="48.24563" lon="2.85151">
        <ele>97</ele>
        <time>2016-05-02T01:16:38Z</time>
      </trkpt>
      <trkpt lat="48.24553" lon="2.85156">
        <ele>99</ele>
        <time>2016-05-02T01:18:38Z</time>
      </trkpt>
      <trkpt lat="48.24545" lon="2.85179">
        <ele>99</ele>
        <time>2016-05-02T01:20:38Z</time>
      </trkpt>
      <trkpt lat="48.24539" lon="2.85205">
        <ele>98</ele>
        <time>2016-05-02T01:22:38Z</time>
      </trkpt>
      <trkpt lat="48.24523" lon="2.85265">
        <ele>97</ele>
        <time>2016-05-02T01:24:38Z</time>
      </trkpt>
      <trkpt lat="48.24516" lon="2.853">
        <ele>98</ele>
        <time>2016-05-02T01:26:38Z</time>
      </trkpt>
      <trkpt lat="48.24511" lon="2.85332">
        <ele>98</ele>
        <time>2016-05-02T01:28:38Z</time>
      </trkpt>
      <trkpt lat="48.24506" lon="2.85393">
        <ele>97</ele>
        <time>2016-05-02T01:30:38Z</time>
      </trkpt>
      <trkpt lat="48.24503" lon="2.85425">
        <ele>96</ele>
        <time>2016-05-02T01:32:38Z</time>
      </trkpt>
      <trkpt lat="48.24502" lon="2.8547">
        <ele>94</ele>
        <time>2016-05-02T01:34:38Z</time>
      </trkpt>
      <trkpt lat="48.24502" lon="2.85501">
        <ele>92</ele>
        <time>2016-05-02T01:36:38Z</time>
      </trkpt>
      <trkpt lat="48.24501" lon="2.85527">
        <ele>92</ele>
        <time>2016-05-02T01:38:38Z</time>
      </trkpt>
      <trkpt lat="48.24501" lon="2.85545">
        <ele>91</ele>
        <time>2016-05-02T01:40:38Z</time>
      </trkpt>
      <trkpt lat="48.24496" lon="2.85577">
        <ele>92</ele>
        <time>2016-05-02T01:42:38Z</time>
      </trkpt>
      <trkpt lat="48.24474" lon="2.85687">
        <ele>97</ele>
        <time>2016-05-02T01:44:38Z</time>
      </trkpt>
      <trkpt lat="48.24457" lon="2.85783">
        <ele>95</ele>
        <time>2016-05-02T01:46:38Z</time>
      </trkpt>
      <trkpt lat="48.24443" lon="2.85835">
        <ele>94</ele>
        <time>2016-05-02T01:48:38Z</time>
      </trkpt>
      <trkpt lat="48.24433" lon="2.85859">
        <ele>94</ele>
        <time>2016-05-02T01:50:38Z</time>
      </trkpt>
      <trkpt lat="48.24417" lon="2.85891">
        <ele>92</ele>
        <time>2016-05-02T01:52:38Z</time>
      </trkpt>
      <trkpt lat="48.24385" lon="2.85926">
        <ele>95</ele>
        <time>2016-05-02T01:54:38Z</time>
      </trkpt>
      <trkpt lat="48.2433" lon="2.85991">
        <ele>96</ele>
        <time>2016-05-02T01:56:38Z</time>
      </trkpt>
      <trkpt lat="48.24291" lon="2.86038">
        <ele>96</ele>
        <time>2016-05-02T01:58:38Z</time>
      </trkpt>
      <trkpt lat="48.2423" lon="2.8607">
        <ele>97</ele>
        <time>2016-05-02T02:00:38Z</time>
      </trkpt>
      <trkpt lat="48.24224" lon="2.8608">
        <ele>97</ele>
        <time>2016-05-02T02:02:38Z</time>
      </trkpt>
      <trkpt lat="48.24219" lon="2.86093">
        <ele>96</ele>
        <time>2016-05-02T02:04:38Z</time>
      </trkpt>
      <trkpt lat="48.24209" lon="2.86101">
        <ele>96</ele>
        <time>2016-05-02T02:06:38Z</time>
      </trkpt>
      <trkpt lat="48.24194" lon="2.86109">
        <ele>96</ele>
        <time>2016-05-02T02:08:38Z</time>
      </trkpt>
      <trkpt lat="48.24183" lon="2.86119">
        <ele>96</ele>
        <time>2016-05-02T02:10:38Z</time>
      </trkpt>
      <trkpt lat="48.24174" lon="2.86135">
        <ele>96</ele>
        <time>2016-05-02T02:12:38Z</time>
      </trkpt>
      <trkpt lat="48.24168" lon="2.86152">
        <ele>95</ele>
        <time>2016-05-02T02:14:38Z</time>
      </trkpt>
      <trkpt lat="48.24139" lon="2.86329">
        <ele>90</ele>
        <time>2016-05-02T02:16:38Z</time>
      </trkpt>
      <trkpt lat="48.241" lon="2.86327">
        <ele>90</ele>
        <time>2016-05-02T02:18:38Z</time>
      </trkpt>
      <trkpt lat="48.24064" lon="2.86327">
        <ele>91</ele>
        <time>2016-05-02T02:20:38Z</time>
      </trkpt>
      <trkpt lat="48.24048" lon="2.86325">
        <ele>91</ele>
        <time>2016-05-02T02:22:38Z</time>
      </trkpt>
      <trkpt lat="48.24025" lon="2.86341">
        <ele>92</ele>
        <time>2016-05-02T02:24:38Z</time>
      </trkpt>
      <trkpt lat="48.24012" lon="2.86363">
        <ele>93</ele>
        <time>2016-05-02T02:26:38Z</time>
      </trkpt>
      <trkpt lat="48.24" lon="2.86402">
        <ele>93</ele>
        <time>2016-05-02T02:28:38Z</time>
      </trkpt>
      <trkpt lat="48.2399" lon="2.86431">
        <ele>94</ele>
        <time>2016-05-02T02:30:38Z</time>
      </trkpt>
      <trkpt lat="48.23985" lon="2.8645">
        <ele>94</ele>
        <time>2016-05-02T02:32:38Z</time>
      </trkpt>
      <trkpt lat="48.23978" lon="2.86468">
        <ele>95</ele>
        <time>2016-05-02T02:34:38Z</time>
      </trkpt>
      <trkpt lat="48.23972" lon="2.86485">
        <ele>95</ele>
        <time>2016-05-02T02:36:38Z</time>
      </trkpt>
      <trkpt lat="48.23963" lon="2.86498">
        <ele>95</ele>
        <time>2016-05-02T02:38:38Z</time>
      </trkpt>
      <trkpt lat="48.23952" lon="2.86512">
        <ele>97</ele>
        <time>2016-05-02T02:40:38Z</time>
      </trkpt>
      <trkpt lat="48.23924" lon="2.86544">
        <ele>99</ele>
        <time>2016-05-02T02:42:38Z</time>
      </trkpt>
      <trkpt lat="48.23912" lon="2.8656">
        <ele>100</ele>
        <time>2016-05-02T02:44:38Z</time>
      </trkpt>
      <trkpt lat="48.23894" lon="2.86591">
        <ele>102</ele>
        <time>2016-05-02T02:46:38Z</time>
      </trkpt>
      <trkpt lat="48.23879" lon="2.86616">
        <ele>103</ele>
        <time>2016-05-02T02:48:38Z</time>
      </trkpt>
      <trkpt lat="48.23862" lon="2.8665">
        <ele>104</ele>
        <time>2016-05-02T02:50:38Z</time>
      </trkpt>
      <trkpt lat="48.23822" lon="2.86739">
        <ele>102</ele>
        <time>2016-05-02T02:52:38Z</time>
      </trkpt>
      <trkpt lat="48.238" lon="2.86792">
        <ele>101</ele>
        <time>2016-05-02T02:54:38Z</time>
      </trkpt>
      <trkpt lat="48.23782" lon="2.86859">
        <ele>100</ele>
        <time>2016-05-02T02:56:38Z</time>
      </trkpt>
      <trkpt lat="48.23758" lon="2.86921">
        <ele>102</ele>
        <time>2016-05-02T02:58:38Z</time>
      </trkpt>
      <trkpt lat="48.23749" lon="2.86952">
        <ele>103</ele>
        <time>2016-05-02T03:00:38Z</time>
      </trkpt>
      <trkpt lat="48.23739" lon="2.87001">
        <ele>105</ele>
        <time>2016-05-02T03:02:38Z</time>
      </trkpt>
      <trkpt lat="48.23734" lon="2.87039">
        <ele>103</ele>
        <time>2016-05-02T03:04:38Z</time>
      </trkpt>
      <trkpt lat="48.23729" lon="2.87059">
        <ele>102</ele>
        <time>2016-05-02T03:06:38Z</time>
      </trkpt>
      <trkpt lat="48.2372" lon="2.87082">
        <ele>102</ele>
        <time>2016-05-02T03:08:38Z</time>
      </trkpt>
      <trkpt lat="48.23705" lon="2.87129">
        <ele>102</ele>
        <time>2016-05-02T03:10:38Z</time>
      </trkpt>
      <trkpt lat="48.2366" lon="2.87269">
        <ele>103</ele>
        <time>2016-05-02T03:12:38Z</time>
      </trkpt>
      <trkpt lat="48.23658" lon="2.87293">
        <ele>102</ele>
        <time>2016-05-02T03:14:38Z</time>
      </trkpt>
      <trkpt lat="48.23655" lon="2.87304">
        <ele>102</ele>
        <time>2016-05-02T03:16:38Z</time>
      </trkpt>
      <trkpt lat="48.23649" lon="2.87321">
        <ele>103</ele>
        <time>2016-05-02T03:18:38Z</time>
      </trkpt>
      <trkpt lat="48.23643" lon="2.87359">
        <ele>103</ele>
        <time>2016-05-02T03:20:38Z</time>
      </trkpt>
      <trkpt lat="48.23637" lon="2.87402">
        <ele>102</ele>
        <time>2016-05-02T03:22:38Z</time>
      </trkpt>
      <trkpt lat="48.23633" lon="2.87435">
        <ele>101</ele>
        <time>2016-05-02T03:24:38Z</time>
      </trkpt>
      <trkpt lat="48.23629" lon="2.87458">
        <ele>102</ele>
        <time>2016-05-02T03:26:38Z</time>
      </trkpt>
      <trkpt lat="48.23625" lon="2.87478">
        <ele>102</ele>
        <time>2016-05-02T03:28:38Z</time>
      </trkpt>
      <trkpt lat="48.23623" lon="2.87488">
        <ele>102</ele>
        <time>2016-05-02T03:30:38Z</time>
      </trkpt>
      <trkpt lat="48.23618" lon="2.87501">
        <ele>103</ele>
        <time>2016-05-02T03:32:38Z</time>
      </trkpt>
      <trkpt lat="48.23604" lon="2.87528">
        <ele>104</ele>
        <time>2016-05-02T03:34:38Z</time>
      </trkpt>
      <trkpt lat="48.23603" lon="2.87542">
        <ele>104</ele>
        <time>2016-05-02T03:36:38Z</time>
      </trkpt>
      <trkpt lat="48.23604" lon="2.87559">
        <ele>103</ele>
        <time>2016-05-02T03:38:38Z</time>
      </trkpt>
      <trkpt lat="48.23609" lon="2.87582">
        <ele>101</ele>
        <time>2016-05-02T03:40:38Z</time>
      </trkpt>
      <trkpt lat="48.23616" lon="2.87629">
        <ele>98</ele>
        <time>2016-05-02T03:42:38Z</time>
      </trkpt>
      <trkpt lat="48.23614" lon="2.87661">
        <ele>97</ele>
        <time>2016-05-02T03:44:38Z</time>
      </trkpt>
      <trkpt lat="48.23605" lon="2.87722">
        <ele>96</ele>
        <time>2016-05-02T03:46:38Z</time>
      </trkpt>
      <trkpt lat="48.23597" lon="2.87766">
        <ele>96</ele>
        <time>2016-05-02T03:48:38Z</time>
      </trkpt>
      <trkpt lat="48.23594" lon="2.87815">
        <ele>96</ele>
        <time>2016-05-02T03:50:38Z</time>
      </trkpt>
      <trkpt lat="48.23591" lon="2.87852">
        <ele>97</ele>
        <time>2016-05-02T03:52:38Z</time>
      </trkpt>
      <trkpt lat="48.23589" lon="2.87895">
        <ele>98</ele>
        <time>2016-05-02T03:54:38Z</time>
      </trkpt>
      <trkpt lat="48.23588" lon="2.87921">
        <ele>99</ele>
        <time>2016-05-02T03:56:38Z</time>
      </trkpt>
      <trkpt lat="48.23593" lon="2.87939">
        <ele>99</ele>
        <time>2016-05-02T03:58:38Z</time>
      </trkpt>
      <trkpt lat="48.23595" lon="2.87967">
        <ele>98</ele>
        <time>2016-05-02T04:00:38Z</time>
      </trkpt>
      <trkpt lat="48.23597" lon="2.87996">
        <ele>98</ele>
        <time>2016-05-02T04:02:38Z</time>
      </trkpt>
      <trkpt lat="48.23596" lon="2.88046">
        <ele>98</ele>
        <time>2016-05-02T04:04:38Z</time>
      </trkpt>
      <trkpt lat="48.23595" lon="2.88073">
        <ele>98</ele>
        <time>2016-05-02T04:06:38Z</time>
      </trkpt>
      <trkpt lat="48.23593" lon="2.88086">
        <ele>98</ele>
        <time>2016-05-02T04:08:38Z</time>
      </trkpt>
      <trkpt lat="48.23591" lon="2.88097">
        <ele>98</ele>
        <time>2016-05-02T04:10:38Z</time>
      </trkpt>
      <trkpt lat="48.23584" lon="2.88117">
        <ele>98</ele>
        <time>2016-05-02T04:12:38Z</time>
      </trkpt>
      <trkpt lat="48.23579" lon="2.88134">
        <ele>99</ele>
        <time>2016-05-02T04:14:38Z</time>
      </trkpt>
      <trkpt lat="48.23573" lon="2.88158">
        <ele>101</ele>
        <time>2016-05-02T04:16:38Z</time>
      </trkpt>
      <trkpt lat="48.23562" lon="2.88219">
        <ele>103</ele>
        <time>2016-05-02T04:18:38Z</time>
      </trkpt>
      <trkpt lat="48.23557" lon="2.88254">
        <ele>104</ele>
        <time>2016-05-02T04:20:38Z</time>
      </trkpt>
      <trkpt lat="48.23552" lon="2.88273">
        <ele>105</ele>
        <time>2016-05-02T04:22:38Z</time>
      </trkpt>
      <trkpt lat="48.23546" lon="2.88307">
        <ele>105</ele>
        <time>2016-05-02T04:24:38Z</time>
      </trkpt>
      <trkpt lat="48.23539" lon="2.88339">
        <ele>105</ele>
        <time>2016-05-02T04:26:38Z</time>
      </trkpt>
      <trkpt lat="48.23534" lon="2.88372">
        <ele>105</ele>
        <time>2016-05-02T04:28:38Z</time>
      </trkpt>
      <trkpt lat="48.23531" lon="2.88397">
        <ele>105</ele>
        <time>2016-05-02T04:30:38Z</time>
      </trkpt>
      <trkpt lat="48.23528" lon="2.88426">
        <ele>104</ele>
        <time>2016-05-02T04:32:38Z</time>
      </trkpt>
      <trkpt lat="48.23526" lon="2.88516">
        <ele>103</ele>
        <time>2016-05-02T04:34:38Z</time>
      </trkpt>
      <trkpt lat="48.23528" lon="2.88508">
        <ele>102</ele>
        <time>2016-05-02T04:36:38Z</time>
      </trkpt>
      <trkpt lat="48.23528" lon="2.88454">
        <ele>104</ele>
        <time>2016-05-02T04:38:38Z</time>
      </trkpt>
      <trkpt lat="48.23531" lon="2.8841">
        <ele>104</ele>
        <time>2016-05-02T04:40:38Z</time>
      </trkpt>
      <trkpt lat="48.23535" lon="2.88376">
        <ele>105</ele>
        <time>2016-05-02T04:42:38Z</time>
      </trkpt>
      <trkpt lat="48.23537" lon="2.88355">
        <ele>105</ele>
        <time>2016-05-02T04:44:38Z</time>
      </trkpt>
      <trkpt lat="48.23543" lon="2.88324">
        <ele>105</ele>
        <time>2016-05-02T04:46:38Z</time>
      </trkpt>
      <trkpt lat="48.2355" lon="2.88293">
        <ele>105</ele>
        <time>2016-05-02T04:48:38Z</time>
      </trkpt>
      <trkpt lat="48.23557" lon="2.88263">
        <ele>104</ele>
        <time>2016-05-02T04:50:38Z</time>
      </trkpt>
      <trkpt lat="48.2356" lon="2.88244">
        <ele>104</ele>
        <time>2016-05-02T04:52:38Z</time>
      </trkpt>
      <trkpt lat="48.23569" lon="2.88195">
        <ele>102</ele>
        <time>2016-05-02T04:54:38Z</time>
      </trkpt>
      <trkpt lat="48.23573" lon="2.88169">
        <ele>101</ele>
        <time>2016-05-02T04:56:38Z</time>
      </trkpt>
      <trkpt lat="48.23579" lon="2.88143">
        <ele>100</ele>
        <time>2016-05-02T04:58:38Z</time>
      </trkpt>
      <trkpt lat="48.23584" lon="2.88127">
        <ele>99</ele>
        <time>2016-05-02T05:00:38Z</time>
      </trkpt>
      <trkpt lat="48.23589" lon="2.8811">
        <ele>98</ele>
        <time>2016-05-02T05:02:38Z</time>
      </trkpt>
      <trkpt lat="48.23594" lon="2.88093">
        <ele>98</ele>
        <time>2016-05-02T05:04:38Z</time>
      </trkpt>
      <trkpt lat="48.23597" lon="2.88059">
        <ele>98</ele>
        <time>2016-05-02T05:06:38Z</time>
      </trkpt>
      <trkpt lat="48.23598" lon="2.88016">
        <ele>98</ele>
        <time>2016-05-02T05:08:38Z</time>
      </trkpt>
      <trkpt lat="48.23598" lon="2.87985">
        <ele>98</ele>
        <time>2016-05-02T05:10:38Z</time>
      </trkpt>
      <trkpt lat="48.23597" lon="2.87953">
        <ele>98</ele>
        <time>2016-05-02T05:12:38Z</time>
      </trkpt>
      <trkpt lat="48.23592" lon="2.87933">
        <ele>99</ele>
        <time>2016-05-02T05:14:38Z</time>
      </trkpt>
      <trkpt lat="48.23602" lon="2.87928">
        <ele>98</ele>
        <time>2016-05-02T05:16:38Z</time>
      </trkpt>
      <trkpt lat="48.2361" lon="2.87926">
        <ele>98</ele>
        <time>2016-05-02T05:18:38Z</time>
      </trkpt>
      <trkpt lat="48.23615" lon="2.87921">
        <ele>98</ele>
        <time>2016-05-02T05:20:38Z</time>
      </trkpt>
      <trkpt lat="48.23615" lon="2.87911">
        <ele>98</ele>
        <time>2016-05-02T05:22:38Z</time>
      </trkpt>
      <trkpt lat="48.23611" lon="2.87909">
        <ele>98</ele>
        <time>2016-05-02T05:24:38Z</time>
      </trkpt>
      <trkpt lat="48.23611" lon="2.87919">
        <ele>98</ele>
        <time>2016-05-02T05:26:38Z</time>
      </trkpt>
      <trkpt lat="48.23606" lon="2.87925">
        <ele>98</ele>
        <time>2016-05-02T05:28:38Z</time>
      </trkpt>
      <trkpt lat="48.23597" lon="2.87929">
        <ele>98</ele>
        <time>2016-05-02T05:30:38Z</time>
      </trkpt>
      <trkpt lat="48.23589" lon="2.87928">
        <ele>99</ele>
        <time>2016-05-02T05:32:38Z</time>
      </trkpt>
      <trkpt lat="48.23574" lon="2.87916">
        <ele>100</ele>
        <time>2016-05-02T05:34:38Z</time>
      </trkpt>
      <trkpt lat="48.2355" lon="2.87891">
        <ele>101</ele>
        <time>2016-05-02T05:36:38Z</time>
      </trkpt>
      <trkpt lat="48.23535" lon="2.87878">
        <ele>102</ele>
        <time>2016-05-02T05:38:38Z</time>
      </trkpt>
      <trkpt lat="48.23528" lon="2.87874">
        <ele>102</ele>
        <time>2016-05-02T05:40:38Z</time>
      </trkpt>
      <trkpt lat="48.23518" lon="2.87871">
        <ele>103</ele>
        <time>2016-05-02T05:42:38Z</time>
      </trkpt>
      <trkpt lat="48.23493" lon="2.8786">
        <ele>104</ele>
        <time>2016-05-02T05:44:38Z</time>
      </trkpt>
      <trkpt lat="48.23472" lon="2.87849">
        <ele>106</ele>
        <time>2016-05-02T05:46:38Z</time>
      </trkpt>
      <trkpt lat="48.23459" lon="2.8784">
        <ele>107</ele>
        <time>2016-05-02T05:48:38Z</time>
      </trkpt>
      <trkpt lat="48.2345" lon="2.87836">
        <ele>107</ele>
        <time>2016-05-02T05:50:38Z</time>
      </trkpt>
      <trkpt lat="48.23433" lon="2.8783">
        <ele>109</ele>
        <time>2016-05-02T05:52:38Z</time>
      </trkpt>
      <trkpt lat="48.23416" lon="2.87821">
        <ele>111</ele>
        <time>2016-05-02T05:54:38Z</time>
      </trkpt>
      <trkpt lat="48.23403" lon="2.87814">
        <ele>112</ele>
        <time>2016-05-02T05:56:38Z</time>
      </trkpt>
      <trkpt lat="48.23371" lon="2.87789">
        <ele>115</ele>
        <time>2016-05-02T05:58:38Z</time>
      </trkpt>
      <trkpt lat="48.23358" lon="2.87777">
        <ele>116</ele>
        <time>2016-05-02T06:00:38Z</time>
      </trkpt>
      <trkpt lat="48.23343" lon="2.87768">
        <ele>117</ele>
        <time>2016-05-02T06:02:38Z</time>
      </trkpt>
      <trkpt lat="48.23322" lon="2.87753">
        <ele>118</ele>
        <time>2016-05-02T06:04:38Z</time>
      </trkpt>
      <trkpt lat="48.23304" lon="2.87739">
        <ele>120</ele>
        <time>2016-05-02T06:06:38Z</time>
      </trkpt>
      <trkpt lat="48.23291" lon="2.87729">
        <ele>121</ele>
        <time>2016-05-02T06:08:38Z</time>
      </trkpt>
      <trkpt lat="48.23268" lon="2.87703">
        <ele>122</ele>
        <time>2016-05-02T06:10:38Z</time>
      </trkpt>
      <trkpt lat="48.23247" lon="2.87683">
        <ele>123</ele>
        <time>2016-05-02T06:12:38Z</time>
      </trkpt>
      <trkpt lat="48.23215" lon="2.8765">
        <ele>124</ele>
        <time>2016-05-02T06:14:38Z</time>
      </trkpt>
      <trkpt lat="48.232" lon="2.87637">
        <ele>124</ele>
        <time>2016-05-02T06:16:38Z</time>
      </trkpt>
      <trkpt lat="48.23099" lon="2.87572">
        <ele>127</ele>
        <time>2016-05-02T06:18:38Z</time>
      </trkpt>
      <trkpt lat="48.23075" lon="2.87553">
        <ele>127</ele>
        <time>2016-05-02T06:20:38Z</time>
      </trkpt>
      <trkpt lat="48.23051" lon="2.8753">
        <ele>128</ele>
        <time>2016-05-02T06:22:38Z</time>
      </trkpt>
      <trkpt lat="48.23021" lon="2.87506">
        <ele>129</ele>
        <time>2016-05-02T06:24:38Z</time>
      </trkpt>
      <trkpt lat="48.22991" lon="2.87482">
        <ele>129</ele>
        <time>2016-05-02T06:26:38Z</time>
      </trkpt>
      <trkpt lat="48.22969" lon="2.8746">
        <ele>130</ele>
        <time>2016-05-02T06:28:38Z</time>
      </trkpt>
      <trkpt lat="48.22953" lon="2.87444">
        <ele>130</ele>
        <time>2016-05-02T06:30:38Z</time>
      </trkpt>
      <trkpt lat="48.22922" lon="2.87407">
        <ele>131</ele>
        <time>2016-05-02T06:32:38Z</time>
      </trkpt>
      <trkpt lat="48.22901" lon="2.87384">
        <ele>131</ele>
        <time>2016-05-02T06:34:38Z</time>
      </trkpt>
      <trkpt lat="48.2288" lon="2.87365">
        <ele>130</ele>
        <time>2016-05-02T06:36:38Z</time>
      </trkpt>
      <trkpt lat="48.22859" lon="2.87348">
        <ele>130</ele>
        <time>2016-05-02T06:38:38Z</time>
      </trkpt>
      <trkpt lat="48.22837" lon="2.87335">
        <ele>130</ele>
        <time>2016-05-02T06:40:38Z</time>
      </trkpt>
      <trkpt lat="48.22798" lon="2.87311">
        <ele>130</ele>
        <time>2016-05-02T06:42:38Z</time>
      </trkpt>
      <trkpt lat="48.22758" lon="2.87292">
        <ele>130</ele>
        <time>2016-05-02T06:44:38Z</time>
      </trkpt>
      <trkpt lat="48.22745" lon="2.87285">
        <ele>129</ele>
        <time>2016-05-02T06:46:38Z</time>
      </trkpt>
      <trkpt lat="48.22725" lon="2.87286">
        <ele>130</ele>
        <time>2016-05-02T06:48:38Z</time>
      </trkpt>
      <trkpt lat="48.22713" lon="2.87285">
        <ele>130</ele>
        <time>2016-05-02T06:50:38Z</time>
      </trkpt>
      <trkpt lat="48.22699" lon="2.87286">
        <ele>130</ele>
        <time>2016-05-02T06:52:38Z</time>
      </trkpt>
      <trkpt lat="48.22681" lon="2.87291">
        <ele>130</ele>
        <time>2016-05-02T06:54:38Z</time>
      </trkpt>
      <trkpt lat="48.22664" lon="2.87296">
        <ele>131</ele>
        <time>2016-05-02T06:56:38Z</time>
      </trkpt>
      <trkpt lat="48.22647" lon="2.87307">
        <ele>131</ele>
        <time>2016-05-02T06:58:38Z</time>
      </trkpt>
      <trkpt lat="48.22636" lon="2.87316">
        <ele>131</ele>
        <time>2016-05-02T07:00:38Z</time>
      </trkpt>
      <trkpt lat="48.22623" lon="2.87332">
        <ele>131</ele>
        <time>2016-05-02T07:02:38Z</time>
      </trkpt>
      <trkpt lat="48.22605" lon="2.87353">
        <ele>131</ele>
        <time>2016-05-02T07:04:38Z</time>
      </trkpt>
      <trkpt lat="48.22589" lon="2.87375">
        <ele>131</ele>
        <time>2016-05-02T07:06:38Z</time>
      </trkpt>
      <trkpt lat="48.22577" lon="2.87386">
        <ele>131</ele>
        <time>2016-05-02T07:08:38Z</time>
      </trkpt>
      <trkpt lat="48.22565" lon="2.87397">
        <ele>131</ele>
        <time>2016-05-02T07:10:38Z</time>
      </trkpt>
      <trkpt lat="48.2255" lon="2.8741">
        <ele>131</ele>
        <time>2016-05-02T07:12:38Z</time>
      </trkpt>
      <trkpt lat="48.22532" lon="2.87422">
        <ele>130</ele>
        <time>2016-05-02T07:14:38Z</time>
      </trkpt>
      <trkpt lat="48.22515" lon="2.87429">
        <ele>129</ele>
        <time>2016-05-02T07:16:38Z</time>
      </trkpt>
      <trkpt lat="48.22493" lon="2.87441">
        <ele>129</ele>
        <time>2016-05-02T07:18:38Z</time>
      </trkpt>
      <trkpt lat="48.22458" lon="2.87454">
        <ele>128</ele>
        <time>2016-05-02T07:20:38Z</time>
      </trkpt>
      <trkpt lat="48.22412" lon="2.87467">
        <ele>128</ele>
        <time>2016-05-02T07:22:38Z</time>
      </trkpt>
      <trkpt lat="48.22385" lon="2.87473">
        <ele>129</ele>
        <time>2016-05-02T07:24:38Z</time>
      </trkpt>
      <trkpt lat="48.22358" lon="2.87483">
        <ele>129</ele>
        <time>2016-05-02T07:26:38Z</time>
      </trkpt>
      <trkpt lat="48.22338" lon="2.87497">
        <ele>130</ele>
        <time>2016-05-02T07:28:38Z</time>
      </trkpt>
      <trkpt lat="48.22321" lon="2.87509">
        <ele>130</ele>
        <time>2016-05-02T07:30:38Z</time>
      </trkpt>
      <trkpt lat="48.2231" lon="2.87517">
        <ele>130</ele>
        <time>2016-05-02T07:32:38Z</time>
      </trkpt>
      <trkpt lat="48.22304" lon="2.87489">
        <ele>130</ele>
        <time>2016-05-02T07:34:38Z</time>
      </trkpt>
      <trkpt lat="48.22298" lon="2.8746">
        <ele>130</ele>
        <time>2016-05-02T07:36:38Z</time>
      </trkpt>
      <trkpt lat="48.22289" lon="2.8741">
        <ele>129</ele>
        <time>2016-05-02T07:38:38Z</time>
      </trkpt>
      <trkpt lat="48.22279" lon="2.87363">
        <ele>129</ele>
        <time>2016-05-02T07:40:38Z</time>
      </trkpt>
      <trkpt lat="48.22272" lon="2.87327">
        <ele>129</ele>
        <time>2016-05-02T07:42:38Z</time>
      </trkpt>
      <trkpt lat="48.22262" lon="2.87292">
        <ele>128</ele>
        <time>2016-05-02T07:44:38Z</time>
      </trkpt>
      <trkpt lat="48.22258" lon="2.87277">
        <ele>127</ele>
        <time>2016-05-02T07:46:38Z</time>
      </trkpt>
      <trkpt lat="48.22247" lon="2.87254">
        <ele>126</ele>
        <time>2016-05-02T07:48:38Z</time>
      </trkpt>
      <trkpt lat="48.22217" lon="2.872">
        <ele>125</ele>
        <time>2016-05-02T07:50:38Z</time>
      </trkpt>
      <trkpt lat="48.22196" lon="2.87172">
        <ele>124</ele>
        <time>2016-05-02T07:52:38Z</time>
      </trkpt>
      <trkpt lat="48.22175" lon="2.87143">
        <ele>123</ele>
        <time>2016-05-02T07:54:38Z</time>
      </trkpt>
      <trkpt lat="48.22154" lon="2.87113">
        <ele>122</ele>
        <time>2016-05-02T07:56:38Z</time>
      </trkpt>
      <trkpt lat="48.2212" lon="2.87074">
        <ele>120</ele>
        <time>2016-05-02T07:58:38Z</time>
      </trkpt>
      <trkpt lat="48.22098" lon="2.87042">
        <ele>119</ele>
        <time>2016-05-02T08:00:38Z</time>
      </trkpt>
      <trkpt lat="48.22088" lon="2.87026">
        <ele>119</ele>
        <time>2016-05-02T08:02:38Z</time>
      </trkpt>
      <trkpt lat="48.22081" lon="2.87014">
        <ele>118</ele>
        <time>2016-05-02T08:04:38Z</time>
      </trkpt>
      <trkpt lat="48.22069" lon="2.86986">
        <ele>118</ele>
        <time>2016-05-02T08:06:38Z</time>
      </trkpt>
      <trkpt lat="48.22055" lon="2.86932">
        <ele>118</ele>
        <time>2016-05-02T08:08:38Z</time>
      </trkpt>
      <trkpt lat="48.22048" lon="2.86901">
        <ele>118</ele>
        <time>2016-05-02T08:10:38Z</time>
      </trkpt>
      <trkpt lat="48.22042" lon="2.86885">
        <ele>117</ele>
        <time>2016-05-02T08:12:38Z</time>
      </trkpt>
      <trkpt lat="48.22037" lon="2.86877">
        <ele>117</ele>
        <time>2016-05-02T08:14:38Z</time>
      </trkpt>
      <trkpt lat="48.2205" lon="2.86567">
        <ele>111</ele>
        <time>2016-05-02T08:16:38Z</time>
      </trkpt>
      <trkpt lat="48.2206" lon="2.86558">
        <ele>109</ele>
        <time>2016-05-02T08:18:38Z</time>
      </trkpt>
      <trkpt lat="48.22075" lon="2.86538">
        <ele>107</ele>
        <time>2016-05-02T08:20:38Z</time>
      </trkpt>
      <trkpt lat="48.22087" lon="2.86525">
        <ele>106</ele>
        <time>2016-05-02T08:22:38Z</time>
      </trkpt>
      <trkpt lat="48.22096" lon="2.86526">
        <ele>106</ele>
        <time>2016-05-02T08:24:38Z</time>
      </trkpt>
      <trkpt lat="48.22106" lon="2.86532">
        <ele>106</ele>
        <time>2016-05-02T08:26:38Z</time>
      </trkpt>
      <trkpt lat="48.2212" lon="2.86537">
        <ele>106</ele>
        <time>2016-05-02T08:28:38Z</time>
      </trkpt>
      <trkpt lat="48.22135" lon="2.86537">
        <ele>106</ele>
        <time>2016-05-02T08:30:38Z</time>
      </trkpt>
      <trkpt lat="48.22151" lon="2.86535">
        <ele>105</ele>
        <time>2016-05-02T08:32:38Z</time>
      </trkpt>
      <trkpt lat="48.22161" lon="2.86527">
        <ele>105</ele>
        <time>2016-05-02T08:34:38Z</time>
      </trkpt>
      <trkpt lat="48.22174" lon="2.86515">
        <ele>105</ele>
        <time>2016-05-02T08:36:38Z</time>
      </trkpt>
      <trkpt lat="48.22183" lon="2.86504">
        <ele>105</ele>
        <time>2016-05-02T08:38:38Z</time>
      </trkpt>
      <trkpt lat="48.22189" lon="2.86487">
        <ele>106</ele>
        <time>2016-05-02T08:40:38Z</time>
      </trkpt>
      <trkpt lat="48.22201" lon="2.86459">
        <ele>108</ele>
        <time>2016-05-02T08:42:38Z</time>
      </trkpt>
      <trkpt lat="48.22209" lon="2.86432">
        <ele>109</ele>
        <time>2016-05-02T08:44:38Z</time>
      </trkpt>
      <trkpt lat="48.22217" lon="2.86416">
        <ele>109</ele>
        <time>2016-05-02T08:46:38Z</time>
      </trkpt>
      <trkpt lat="48.22231" lon="2.8639">
        <ele>109</ele>
        <time>2016-05-02T08:48:38Z</time>
      </trkpt>
      <trkpt lat="48.22246" lon="2.86368">
        <ele>108</ele>
        <time>2016-05-02T08:50:38Z</time>
      </trkpt>
      <trkpt lat="48.22253" lon="2.8636">
        <ele>108</ele>
        <time>2016-05-02T08:52:38Z</time>
      </trkpt>
      <trkpt lat="48.22267" lon="2.86352">
        <ele>107</ele>
        <time>2016-05-02T08:54:38Z</time>
      </trkpt>
      <trkpt lat="48.22285" lon="2.8634">
        <ele>106</ele>
        <time>2016-05-02T08:56:38Z</time>
      </trkpt>
      <trkpt lat="48.22304" lon="2.86334">
        <ele>105</ele>
        <time>2016-05-02T08:58:38Z</time>
      </trkpt>
      <trkpt lat="48.22332" lon="2.86328">
        <ele>105</ele>
        <time>2016-05-02T09:00:38Z</time>
      </trkpt>
      <trkpt lat="48.22361" lon="2.86322">
        <ele>106</ele>
        <time>2016-05-02T09:02:38Z</time>
      </trkpt>
      <trkpt lat="48.2239" lon="2.86319">
        <ele>107</ele>
        <time>2016-05-02T09:04:38Z</time>
      </trkpt>
      <trkpt lat="48.22416" lon="2.86322">
        <ele>108</ele>
        <time>2016-05-02T09:06:38Z</time>
      </trkpt>
      <trkpt lat="48.22436" lon="2.86318">
        <ele>108</ele>
        <time>2016-05-02T09:08:38Z</time>
      </trkpt>
      <trkpt lat="48.22455" lon="2.86315">
        <ele>108</ele>
        <time>2016-05-02T09:10:38Z</time>
      </trkpt>
      <trkpt lat="48.22476" lon="2.86313">
        <ele>108</ele>
        <time>2016-05-02T09:12:38Z</time>
      </trkpt>
      <trkpt lat="48.22503" lon="2.86311">
        <ele>107</ele>
        <time>2016-05-02T09:14:38Z</time>
      </trkpt>
      <trkpt lat="48.22525" lon="2.86313">
        <ele>107</ele>
        <time>2016-05-02T09:16:38Z</time>
      </trkpt>
      <trkpt lat="48.22547" lon="2.86314">
        <ele>107</ele>
        <time>2016-05-02T09:18:38Z</time>
      </trkpt>
      <trkpt lat="48.2257" lon="2.86317">
        <ele>107</ele>
        <time>2016-05-02T09:20:38Z</time>
      </trkpt>
      <trkpt lat="48.22596" lon="2.86322">
        <ele>107</ele>
        <time>2016-05-02T09:22:38Z</time>
      </trkpt>
      <trkpt lat="48.22629" lon="2.86327">
        <ele>107</ele>
        <time>2016-05-02T09:24:38Z</time>
      </trkpt>
      <trkpt lat="48.22649" lon="2.86325">
        <ele>107</ele>
        <time>2016-05-02T09:26:38Z</time>
      </trkpt>
      <trkpt lat="48.22676" lon="2.86321">
        <ele>106</ele>
        <time>2016-05-02T09:28:38Z</time>
      </trkpt>
      <trkpt lat="48.22698" lon="2.86316">
        <ele>105</ele>
        <time>2016-05-02T09:30:38Z</time>
      </trkpt>
      <trkpt lat="48.22715" lon="2.86312">
        <ele>104</ele>
        <time>2016-05-02T09:32:38Z</time>
      </trkpt>
      <trkpt lat="48.22735" lon="2.86308">
        <ele>103</ele>
        <time>2016-05-02T09:34:38Z</time>
      </trkpt>
      <trkpt lat="48.2276" lon="2.86305">
        <ele>102</ele>
        <time>2016-05-02T09:36:38Z</time>
      </trkpt>
      <trkpt lat="48.2279" lon="2.86307">
        <ele>103</ele>
        <time>2016-05-02T09:38:38Z</time>
      </trkpt>
      <trkpt lat="48.22806" lon="2.86309">
        <ele>104</ele>
        <time>2016-05-02T09:40:38Z</time>
      </trkpt>
      <trkpt lat="48.22813" lon="2.86315">
        <ele>105</ele>
        <time>2016-05-02T09:42:38Z</time>
      </trkpt>
      <trkpt lat="48.22827" lon="2.86308">
        <ele>105</ele>
        <time>2016-05-02T09:44:38Z</time>
      </trkpt>
      <trkpt lat="48.22847" lon="2.86297">
        <ele>104</ele>
        <time>2016-05-02T09:46:38Z</time>
      </trkpt>
      <trkpt lat="48.22861" lon="2.86289">
        <ele>104</ele>
        <time>2016-05-02T09:48:38Z</time>
      </trkpt>
      <trkpt lat="48.22879" lon="2.86283">
        <ele>104</ele>
        <time>2016-05-02T09:50:38Z</time>
      </trkpt>
      <trkpt lat="48.22892" lon="2.8628">
        <ele>104</ele>
        <time>2016-05-02T09:52:38Z</time>
      </trkpt>
      <trkpt lat="48.22905" lon="2.86279">
        <ele>104</ele>
        <time>2016-05-02T09:54:38Z</time>
      </trkpt>
      <trkpt lat="48.22926" lon="2.86282">
        <ele>105</ele>
        <time>2016-05-02T09:56:38Z</time>
      </trkpt>
      <trkpt lat="48.22952" lon="2.86285">
        <ele>105</ele>
        <time>2016-05-02T09:58:38Z</time>
      </trkpt>
      <trkpt lat="48.23004" lon="2.86292">
        <ele>105</ele>
        <time>2016-05-02T10:00:38Z</time>
      </trkpt>
      <trkpt lat="48.23032" lon="2.86297">
        <ele>106</ele>
        <time>2016-05-02T10:02:38Z</time>
      </trkpt>
      <trkpt lat="48.23042" lon="2.86299">
        <ele>106</ele>
        <time>2016-05-02T10:04:38Z</time>
      </trkpt>
      <trkpt lat="48.23052" lon="2.86301">
        <ele>106</ele>
        <time>2016-05-02T10:06:38Z</time>
      </trkpt>
      <trkpt lat="48.23063" lon="2.86294">
        <ele>105</ele>
        <time>2016-05-02T10:08:38Z</time>
      </trkpt>
      <trkpt lat="48.2307" lon="2.86289">
        <ele>105</ele>
        <time>2016-05-02T10:10:38Z</time>
      </trkpt>
      <trkpt lat="48.23095" lon="2.86277">
        <ele>103</ele>
        <time>2016-05-02T10:12:38Z</time>
      </trkpt>
      <trkpt lat="48.23112" lon="2.86274">
        <ele>102</ele>
        <time>2016-05-02T10:14:38Z</time>
      </trkpt>
      <trkpt lat="48.23132" lon="2.86267">
        <ele>101</ele>
        <time>2016-05-02T10:16:38Z</time>
      </trkpt>
      <trkpt lat="48.23165" lon="2.86254">
        <ele>99</ele>
        <time>2016-05-02T10:18:38Z</time>
      </trkpt>
      <trkpt lat="48.23184" lon="2.86244">
        <ele>99</ele>
        <time>2016-05-02T10:20:38Z</time>
      </trkpt>
      <trkpt lat="48.23202" lon="2.86229">
        <ele>100</ele>
        <time>2016-05-02T10:22:38Z</time>
      </trkpt>
      <trkpt lat="48.23218" lon="2.86215">
        <ele>100</ele>
        <time>2016-05-02T10:24:38Z</time>
      </trkpt>
      <trkpt lat="48.23241" lon="2.86198">
        <ele>100</ele>
        <time>2016-05-02T10:26:38Z</time>
      </trkpt>
      <trkpt lat="48.23271" lon="2.86178">
        <ele>98</ele>
        <time>2016-05-02T10:28:38Z</time>
      </trkpt>
      <trkpt lat="48.23289" lon="2.8617">
        <ele>97</ele>
        <time>2016-05-02T10:30:38Z</time>
      </trkpt>
      <trkpt lat="48.23308" lon="2.86162">
        <ele>97</ele>
        <time>2016-05-02T10:32:38Z</time>
      </trkpt>
      <trkpt lat="48.23326" lon="2.86158">
        <ele>98</ele>
        <time>2016-05-02T10:34:38Z</time>
      </trkpt>
      <trkpt lat="48.23351" lon="2.86157">
        <ele>97</ele>
        <time>2016-05-02T10:36:38Z</time>
      </trkpt>
      <trkpt lat="48.23372" lon="2.86154">
        <ele>96</ele>
        <time>2016-05-02T10:38:38Z</time>
      </trkpt>
      <trkpt lat="48.23385" lon="2.86155">
        <ele>96</ele>
        <time>2016-05-02T10:40:38Z</time>
      </trkpt>
      <trkpt lat="48.23421" lon="2.86157">
        <ele>94</ele>
        <time>2016-05-02T10:42:38Z</time>
      </trkpt>
      <trkpt lat="48.23441" lon="2.86157">
        <ele>95</ele>
        <time>2016-05-02T10:44:38Z</time>
      </trkpt>
      <trkpt lat="48.23471" lon="2.86152">
        <ele>96</ele>
        <time>2016-05-02T10:46:38Z</time>
      </trkpt>
      <trkpt lat="48.23487" lon="2.8615">
        <ele>96</ele>
        <time>2016-05-02T10:48:38Z</time>
      </trkpt>
      <trkpt lat="48.23512" lon="2.86142">
        <ele>97</ele>
        <time>2016-05-02T10:50:38Z</time>
      </trkpt>
      <trkpt lat="48.23532" lon="2.86132">
        <ele>97</ele>
        <time>2016-05-02T10:52:38Z</time>
      </trkpt>
      <trkpt lat="48.2355" lon="2.86124">
        <ele>97</ele>
        <time>2016-05-02T10:54:38Z</time>
      </trkpt>
      <trkpt lat="48.23576" lon="2.86116">
        <ele>97</ele>
        <time>2016-05-02T10:56:38Z</time>
      </trkpt>
      <trkpt lat="48.23596" lon="2.86115">
        <ele>97</ele>
        <time>2016-05-02T10:58:38Z</time>
      </trkpt>
      <trkpt lat="48.23606" lon="2.86112">
        <ele>96</ele>
        <time>2016-05-02T11:00:38Z</time>
      </trkpt>
      <trkpt lat="48.23612" lon="2.86107">
        <ele>95</ele>
        <time>2016-05-02T11:02:38Z</time>
      </trkpt>
      <trkpt lat="48.23638" lon="2.8611">
        <ele>95</ele>
        <time>2016-05-02T11:04:38Z</time>
      </trkpt>
      <trkpt lat="48.23662" lon="2.8611">
        <ele>95</ele>
        <time>2016-05-02T11:06:38Z</time>
      </trkpt>
      <trkpt lat="48.23683" lon="2.86116">
        <ele>95</ele>
        <time>2016-05-02T11:08:38Z</time>
      </trkpt>
      <trkpt lat="48.23701" lon="2.8612">
        <ele>95</ele>
        <time>2016-05-02T11:10:38Z</time>
      </trkpt>
      <trkpt lat="48.23783" lon="2.86152">
        <ele>93</ele>
        <time>2016-05-02T11:12:38Z</time>
      </trkpt>
      <trkpt lat="48.23821" lon="2.86167">
        <ele>93</ele>
        <time>2016-05-02T11:14:38Z</time>
      </trkpt>
      <trkpt lat="48.23872" lon="2.8619">
        <ele>95</ele>
        <time>2016-05-02T11:16:38Z</time>
      </trkpt>
      <trkpt lat="48.23891" lon="2.86201">
        <ele>95</ele>
        <time>2016-05-02T11:18:38Z</time>
      </trkpt>
      <trkpt lat="48.23912" lon="2.86214">
        <ele>95</ele>
        <time>2016-05-02T11:20:38Z</time>
      </trkpt>
      <trkpt lat="48.23939" lon="2.86241">
        <ele>95</ele>
        <time>2016-05-02T11:22:38Z</time>
      </trkpt>
      <trkpt lat="48.23961" lon="2.86267">
        <ele>96</ele>
        <time>2016-05-02T11:24:38Z</time>
      </trkpt>
      <trkpt lat="48.23988" lon="2.86296">
        <ele>95</ele>
        <time>2016-05-02T11:26:38Z</time>
      </trkpt>
      <trkpt lat="48.24001" lon="2.86309">
        <ele>93</ele>
        <time>2016-05-02T11:28:38Z</time>
      </trkpt>
      <trkpt lat="48.24013" lon="2.86323">
        <ele>93</ele>
        <time>2016-05-02T11:30:38Z</time>
      </trkpt>
      <trkpt lat="48.2402" lon="2.86334">
        <ele>92</ele>
        <time>2016-05-02T11:32:38Z</time>
      </trkpt>
      <trkpt lat="48.24025" lon="2.86348">
        <ele>92</ele>
        <time>2016-05-02T11:34:38Z</time>
      </trkpt>
      <trkpt lat="48.24038" lon="2.86338">
        <ele>92</ele>
        <time>2016-05-02T11:36:38Z</time>
      </trkpt>
      <trkpt lat="48.24047" lon="2.86334">
        <ele>91</ele>
        <time>2016-05-02T11:38:38Z</time>
      </trkpt>
      <trkpt lat="48.24061" lon="2.86331">
        <ele>91</ele>
        <time>2016-05-02T11:40:38Z</time>
      </trkpt>
      <trkpt lat="48.24075" lon="2.86331">
        <ele>90</ele>
        <time>2016-05-02T11:42:38Z</time>
      </trkpt>
      <trkpt lat="48.24098" lon="2.86333">
        <ele>90</ele>
        <time>2016-05-02T11:44:38Z</time>
      </trkpt>
      <trkpt lat="48.24121" lon="2.86334">
        <ele>90</ele>
        <time>2016-05-02T11:46:38Z</time>
      </trkpt>
      <trkpt lat="48.24143" lon="2.86336">
        <ele>90</ele>
        <time>2016-05-02T11:48:38Z</time>
      </trkpt>
      <trkpt lat="48.2415" lon="2.86291">
        <ele>89</ele>
        <time>2016-05-02T11:50:38Z</time>
      </trkpt>
      <trkpt lat="48.24157" lon="2.86248">
        <ele>89</ele>
        <time>2016-05-02T11:52:38Z</time>
      </trkpt>
      <trkpt lat="48.24164" lon="2.86204">
        <ele>92</ele>
        <time>2016-05-02T11:54:38Z</time>
      </trkpt>
      <trkpt lat="48.24169" lon="2.86176">
        <ele>94</ele>
        <time>2016-05-02T11:56:38Z</time>
      </trkpt>
      <trkpt lat="48.24171" lon="2.86154">
        <ele>95</ele>
        <time>2016-05-02T11:58:38Z</time>
      </trkpt>
      <trkpt lat="48.24178" lon="2.86136">
        <ele>96</ele>
        <time>2016-05-02T12:00:38Z</time>
      </trkpt>
      <trkpt lat="48.24187" lon="2.86123">
        <ele>96</ele>
        <time>2016-05-02T12:02:38Z</time>
      </trkpt>
      <trkpt lat="48.24198" lon="2.86113">
        <ele>96</ele>
        <time>2016-05-02T12:04:38Z</time>
      </trkpt>
      <trkpt lat="48.24214" lon="2.86103">
        <ele>96</ele>
        <time>2016-05-02T12:06:38Z</time>
      </trkpt>
      <trkpt lat="48.24223" lon="2.86095">
        <ele>96</ele>
        <time>2016-05-02T12:08:38Z</time>
      </trkpt>
      <trkpt lat="48.24228" lon="2.86081">
        <ele>97</ele>
        <time>2016-05-02T12:10:38Z</time>
      </trkpt>
      <trkpt lat="48.24234" lon="2.86076">
        <ele>97</ele>
        <time>2016-05-02T12:12:38Z</time>
      </trkpt>
      <trkpt lat="48.24253" lon="2.86066">
        <ele>97</ele>
        <time>2016-05-02T12:14:38Z</time>
      </trkpt>
      <trkpt lat="48.2427" lon="2.86057">
        <ele>96</ele>
        <time>2016-05-02T12:16:38Z</time>
      </trkpt>
      <trkpt lat="48.24282" lon="2.86051">
        <ele>95</ele>
        <time>2016-05-02T12:18:38Z</time>
      </trkpt>
      <trkpt lat="48.2429" lon="2.86044">
        <ele>95</ele>
        <time>2016-05-02T12:20:38Z</time>
      </trkpt>
      <trkpt lat="48.24298" lon="2.86038">
        <ele>95</ele>
        <time>2016-05-02T12:22:38Z</time>
      </trkpt>
      <trkpt lat="48.24326" lon="2.86005">
        <ele>95</ele>
        <time>2016-05-02T12:24:38Z</time>
      </trkpt>
      <trkpt lat="48.24347" lon="2.85981">
        <ele>96</ele>
        <time>2016-05-02T12:26:38Z</time>
      </trkpt>
      <trkpt lat="48.24416" lon="2.85898">
        <ele>92</ele>
        <time>2016-05-02T12:28:38Z</time>
      </trkpt>
      <trkpt lat="48.24429" lon="2.85876">
        <ele>93</ele>
        <time>2016-05-02T12:30:38Z</time>
      </trkpt>
      <trkpt lat="48.24439" lon="2.85854">
        <ele>94</ele>
        <time>2016-05-02T12:32:38Z</time>
      </trkpt>
      <trkpt lat="48.2445" lon="2.85822">
        <ele>94</ele>
        <time>2016-05-02T12:34:38Z</time>
      </trkpt>
      <trkpt lat="48.24458" lon="2.85796">
        <ele>94</ele>
        <time>2016-05-02T12:36:38Z</time>
      </trkpt>
      <trkpt lat="48.24462" lon="2.85775">
        <ele>94</ele>
        <time>2016-05-02T12:38:38Z</time>
      </trkpt>
      <trkpt lat="48.24468" lon="2.85744">
        <ele>94</ele>
        <time>2016-05-02T12:40:38Z</time>
      </trkpt>
      <trkpt lat="48.24476" lon="2.85696">
        <ele>96</ele>
        <time>2016-05-02T12:42:38Z</time>
      </trkpt>
      <trkpt lat="48.24482" lon="2.85668">
        <ele>96</ele>
        <time>2016-05-02T12:44:38Z</time>
      </trkpt>
      <trkpt lat="48.24489" lon="2.85637">
        <ele>94</ele>
        <time>2016-05-02T12:46:38Z</time>
      </trkpt>
      <trkpt lat="48.24497" lon="2.85598">
        <ele>92</ele>
        <time>2016-05-02T12:48:38Z</time>
      </trkpt>
      <trkpt lat="48.24503" lon="2.85556">
        <ele>91</ele>
        <time>2016-05-02T12:50:38Z</time>
      </trkpt>
      <trkpt lat="48.24505" lon="2.85529">
        <ele>91</ele>
        <time>2016-05-02T12:52:38Z</time>
      </trkpt>
      <trkpt lat="48.24506" lon="2.85498">
        <ele>92</ele>
        <time>2016-05-02T12:54:38Z</time>
      </trkpt>
      <trkpt lat="48.24506" lon="2.85464">
        <ele>93</ele>
        <time>2016-05-02T12:56:38Z</time>
      </trkpt>
      <trkpt lat="48.24507" lon="2.85438">
        <ele>95</ele>
        <time>2016-05-02T12:58:38Z</time>
      </trkpt>
      <trkpt lat="48.24508" lon="2.85409">
        <ele>96</ele>
        <time>2016-05-02T13:00:38Z</time>
      </trkpt>
      <trkpt lat="48.24511" lon="2.85385">
        <ele>96</ele>
        <time>2016-05-02T13:02:38Z</time>
      </trkpt>
      <trkpt lat="48.24512" lon="2.85364">
        <ele>97</ele>
        <time>2016-05-02T13:04:38Z</time>
      </trkpt>
      <trkpt lat="48.24514" lon="2.85336">
        <ele>97</ele>
        <time>2016-05-02T13:06:38Z</time>
      </trkpt>
      <trkpt lat="48.24517" lon="2.85316">
        <ele>97</ele>
        <time>2016-05-02T13:08:38Z</time>
      </trkpt>
      <trkpt lat="48.24524" lon="2.8528">
        <ele>97</ele>
        <time>2016-05-02T13:10:38Z</time>
      </trkpt>
      <trkpt lat="48.24533" lon="2.85239">
        <ele>97</ele>
        <time>2016-05-02T13:12:38Z</time>
      </trkpt>
      <trkpt lat="48.24542" lon="2.85204">
        <ele>98</ele>
        <time>2016-05-02T13:14:38Z</time>
      </trkpt>
      <trkpt lat="48.24553" lon="2.85163">
        <ele>98</ele>
        <time>2016-05-02T13:16:38Z</time>
      </trkpt>
      <trkpt lat="48.24564" lon="2.85155">
        <ele>97</ele>
        <time>2016-05-02T13:18:38Z</time>
      </trkpt>
      <trkpt lat="48.24573" lon="2.8514">
        <ele>95</ele>
        <time>2016-05-02T13:20:38Z</time>
      </trkpt>
      <trkpt lat="48.24583" lon="2.85116">
        <ele>95</ele>
        <time>2016-05-02T13:22:38Z</time>
      </trkpt>
      <trkpt lat="48.24593" lon="2.85089">
        <ele>95</ele>
        <time>2016-05-02T13:24:38Z</time>
      </trkpt>
      <trkpt lat="48.24599" lon="2.85071">
        <ele>95</ele>
        <time>2016-05-02T13:26:38Z</time>
      </trkpt>
      <trkpt lat="48.24606" lon="2.85049">
        <ele>94</ele>
        <time>2016-05-02T13:28:38Z</time>
      </trkpt>
      <trkpt lat="48.24612" lon="2.85026">
        <ele>94</ele>
        <time>2016-05-02T13:30:38Z</time>
      </trkpt>
      <trkpt lat="48.24623" lon="2.84981">
        <ele>93</ele>
        <time>2016-05-02T13:32:38Z</time>
      </trkpt>
      <trkpt lat="48.24626" lon="2.84961">
        <ele>93</ele>
        <time>2016-05-02T13:34:38Z</time>
      </trkpt>
      <trkpt lat="48.24634" lon="2.84949">
        <ele>92</ele>
        <time>2016-05-02T13:36:38Z</time>
      </trkpt>
      <trkpt lat="48.24639" lon="2.84944">
        <ele>91</ele>
        <time>2016-05-02T13:38:38Z</time>
      </trkpt>
      <trkpt lat="48.24647" lon="2.8494">
        <ele>89</ele>
        <time>2016-05-02T13:40:38Z</time>
      </trkpt>
      <trkpt lat="48.24654" lon="2.84942">
        <ele>88</ele>
        <time>2016-05-02T13:42:38Z</time>
      </trkpt>
      <trkpt lat="48.24665" lon="2.84953">
        <ele>86</ele>
        <time>2016-05-02T13:44:38Z</time>
      </trkpt>
      <trkpt lat="48.24682" lon="2.84973">
        <ele>85</ele>
        <time>2016-05-02T13:46:38Z</time>
      </trkpt>
      <trkpt lat="48.247" lon="2.84991">
        <ele>85</ele>
        <time>2016-05-02T13:48:38Z</time>
      </trkpt>
      <trkpt lat="48.24715" lon="2.85009">
        <ele>84</ele>
        <time>2016-05-02T13:50:38Z</time>
      </trkpt>
      <trkpt lat="48.24744" lon="2.85034">
        <ele>84</ele>
        <time>2016-05-02T13:52:38Z</time>
      </trkpt>
      <trkpt lat="48.24762" lon="2.85047">
        <ele>84</ele>
        <time>2016-05-02T13:54:38Z</time>
      </trkpt>
      <trkpt lat="48.24782" lon="2.8506">
        <ele>84</ele>
        <time>2016-05-02T13:56:38Z</time>
      </trkpt>
      <trkpt lat="48.24822" lon="2.8508">
        <ele>84</ele>
        <time>2016-05-02T13:58:38Z</time>
      </trkpt>
      <trkpt lat="48.24848" lon="2.85096">
        <ele>85</ele>
        <time>2016-05-02T14:00:38Z</time>
      </trkpt>
      <trkpt lat="48.24866" lon="2.85108">
        <ele>87</ele>
        <time>2016-05-02T14:02:38Z</time>
      </trkpt>
      <trkpt lat="48.24878" lon="2.85123">
        <ele>89</ele>
        <time>2016-05-02T14:04:38Z</time>
      </trkpt>
      <trkpt lat="48.24886" lon="2.85122">
        <ele>90</ele>
        <time>2016-05-02T14:06:38Z</time>
      </trkpt>
      <trkpt lat="48.24913" lon="2.85134">
        <ele>93</ele>
        <time>2016-05-02T14:08:38Z</time>
      </trkpt>
      <trkpt lat="48.24957" lon="2.85151">
        <ele>104</ele>
        <time>2016-05-02T14:10:38Z</time>
      </trkpt>
      <trkpt lat="48.24965" lon="2.85153">
        <ele>106</ele>
        <time>2016-05-02T14:12:38Z</time>
      </trkpt>
      <trkpt lat="48.24973" lon="2.8516">
        <ele>108</ele>
        <time>2016-05-02T14:14:38Z</time>
      </trkpt>
      <trkpt lat="48.24981" lon="2.85179">
        <ele>110</ele>
        <time>2016-05-02T14:16:38Z</time>
      </trkpt>
      <trkpt lat="48.24992" lon="2.8522">
        <ele>112</ele>
        <time>2016-05-02T14:18:38Z</time>
      </trkpt>
      <trkpt lat="48.24997" lon="2.85249">
        <ele>113</ele>
        <time>2016-05-02T14:20:38Z</time>
      </trkpt>
      <trkpt lat="48.25004" lon="2.85277">
        <ele>114</ele>
        <time>2016-05-02T14:22:38Z</time>
      </trkpt>
      <trkpt lat="48.25012" lon="2.85295">
        <ele>115</ele>
        <time>2016-05-02T14:24:38Z</time>
      </trkpt>
      <trkpt lat="48.25017" lon="2.85302">
        <ele>116</ele>
        <time>2016-05-02T14:26:38Z</time>
      </trkpt>
      <trkpt lat="48.25015" lon="2.85288">
        <ele>116</ele>
        <time>2016-05-02T14:28:38Z</time>
      </trkpt>
      <trkpt lat="48.25013" lon="2.85267">
        <ele>116</ele>
        <time>2016-05-02T14:30:38Z</time>
      </trkpt>
      <trkpt lat="48.25012" lon="2.85248">
        <ele>116</ele>
        <time>2016-05-02T14:32:38Z</time>
      </trkpt>
      <trkpt lat="48.2501" lon="2.85213">
        <ele>116</ele>
        <time>2016-05-02T14:34:38Z</time>
      </trkpt>
      <trkpt lat="48.25011" lon="2.85201">
        <ele>116</ele>
        <time>2016-05-02T14:36:38Z</time>
      </trkpt>
      <trkpt lat="48.25017" lon="2.85192">
        <ele>117</ele>
        <time>2016-05-02T14:38:38Z</time>
      </trkpt>
      <trkpt lat="48.2503" lon="2.85193">
        <ele>119</ele>
        <time>2016-05-02T14:40:38Z</time>
      </trkpt>
      <trkpt lat="48.2504" lon="2.85193">
        <ele>121</ele>
        <time>2016-05-02T14:42:38Z</time>
      </trkpt>
      <trkpt lat="48.25048" lon="2.85195">
        <ele>122</ele>
        <time>2016-05-02T14:44:38Z</time>
      </trkpt>
      <trkpt lat="48.25052" lon="2.85187">
        <ele>123</ele>
        <time>2016-05-02T14:46:38Z</time>
      </trkpt>
      <trkpt lat="48.25054" lon="2.85179">
        <ele>123</ele>
        <time>2016-05-02T14:48:38Z</time>
      </trkpt>
      <trkpt lat="48.25055" lon="2.85155">
        <ele>123</ele>
        <time>2016-05-02T14:50:38Z</time>
      </trkpt>
      <trkpt lat="48.25063" lon="2.85137">
        <ele>124</ele>
        <time>2016-05-02T14:52:38Z</time>
      </trkpt>
      <trkpt lat="48.25067" lon="2.85122">
        <ele>124</ele>
        <time>2016-05-02T14:54:38Z</time>
      </trkpt>
      <trkpt lat="48.2507" lon="2.85112">
        <ele>125</ele>
        <time>2016-05-02T14:56:38Z</time>
      </trkpt>
      <trkpt lat="48.2507" lon="2.85097">
        <ele>125</ele>
        <time>2016-05-02T14:58:38Z</time>
      </trkpt>
      <trkpt lat="48.2507" lon="2.85081">
        <ele>125</ele>
        <time>2016-05-02T15:00:38Z</time>
      </trkpt>
      <trkpt lat="48.2507" lon="2.85069">
        <ele>124</ele>
        <time>2016-05-02T15:02:38Z</time>
      </trkpt>
      <trkpt lat="48.25074" lon="2.85049">
        <ele>124</ele>
        <time>2016-05-02T15:04:38Z</time>
      </trkpt>
      <trkpt lat="48.25076" lon="2.85034">
        <ele>124</ele>
        <time>2016-05-02T15:06:38Z</time>
      </trkpt>
      <trkpt lat="48.25079" lon="2.85011">
        <ele>123</ele>
        <time>2016-05-02T15:08:38Z</time>
      </trkpt>
      <trkpt lat="48.25082" lon="2.84995">
        <ele>124</ele>
        <time>2016-05-02T15:10:38Z</time>
      </trkpt>
      <trkpt lat="48.25085" lon="2.84976">
        <ele>124</ele>
        <time>2016-05-02T15:12:38Z</time>
      </trkpt>
      <trkpt lat="48.25087" lon="2.84966">
        <ele>124</ele>
        <time>2016-05-02T15:14:38Z</time>
      </trkpt>
      <trkpt lat="48.25095" lon="2.84953">
        <ele>125</ele>
        <time>2016-05-02T15:16:38Z</time>
      </trkpt>
      <trkpt lat="48.25097" lon="2.8494">
        <ele>125</ele>
        <time>2016-05-02T15:18:38Z</time>
      </trkpt>
      <trkpt lat="48.25098" lon="2.84929">
        <ele>125</ele>
        <time>2016-05-02T15:20:38Z</time>
      </trkpt>
      <trkpt lat="48.25098" lon="2.84914">
        <ele>124</ele>
        <time>2016-05-02T15:22:38Z</time>
      </trkpt>
      <trkpt lat="48.25096" lon="2.849">
        <ele>124</ele>
        <time>2016-05-02T15:24:38Z</time>
      </trkpt>
      <trkpt lat="48.25096" lon="2.84888">
        <ele>124</ele>
        <time>2016-05-02T15:26:38Z</time>
      </trkpt>
      <trkpt lat="48.25099" lon="2.84866">
        <ele>125</ele>
        <time>2016-05-02T15:28:38Z</time>
      </trkpt>
      <trkpt lat="48.25104" lon="2.84857">
        <ele>125</ele>
        <time>2016-05-02T15:30:38Z</time>
      </trkpt>
      <trkpt lat="48.25106" lon="2.84841">
        <ele>126</ele>
        <time>2016-05-02T15:32:38Z</time>
      </trkpt>
      <trkpt lat="48.25108" lon="2.84819">
        <ele>126</ele>
        <time>2016-05-02T15:34:38Z</time>
      </trkpt>
      <trkpt lat="48.2511" lon="2.84809">
        <ele>126</ele>
        <time>2016-05-02T15:36:38Z</time>
      </trkpt>
      <trkpt lat="48.25111" lon="2.84787">
        <ele>126</ele>
        <time>2016-05-02T15:38:38Z</time>
      </trkpt>
      <trkpt lat="48.25109" lon="2.84773">
        <ele>125</ele>
        <time>2016-05-02T15:40:38Z</time>
      </trkpt>
      <trkpt lat="48.2511" lon="2.84752">
        <ele>125</ele>
        <time>2016-05-02T15:42:38Z</time>
      </trkpt>
      <trkpt lat="48.25113" lon="2.84728">
        <ele>124</ele>
        <time>2016-05-02T15:44:38Z</time>
      </trkpt>
      <trkpt lat="48.25128" lon="2.84686">
        <ele>124</ele>
        <time>2016-05-02T15:46:38Z</time>
      </trkpt>
      <trkpt lat="48.25141" lon="2.84658">
        <ele>124</ele>
        <time>2016-05-02T15:48:38Z</time>
      </trkpt>
      <trkpt lat="48.25152" lon="2.84633">
        <ele>125</ele>
        <time>2016-05-02T15:50:38Z</time>
      </trkpt>
      <trkpt lat="48.25165" lon="2.84605">
        <ele>126</ele>
        <time>2016-05-02T15:52:38Z</time>
      </trkpt>
      <trkpt lat="48.25172" lon="2.84586">
        <ele>125</ele>
        <time>2016-05-02T15:54:38Z</time>
      </trkpt>
      <trkpt lat="48.25177" lon="2.84578">
        <ele>125</ele>
        <time>2016-05-02T15:56:38Z</time>
      </trkpt>
      <trkpt lat="48.25184" lon="2.84574">
        <ele>125</ele>
        <time>2016-05-02T15:58:38Z</time>
      </trkpt>
      <trkpt lat="48.25188" lon="2.84554">
        <ele>125</ele>
        <time>2016-05-02T16:00:38Z</time>
      </trkpt>
      <trkpt lat="48.25197" lon="2.84528">
        <ele>124</ele>
        <time>2016-05-02T16:02:38Z</time>
      </trkpt>
      <trkpt lat="48.25206" lon="2.84511">
        <ele>123</ele>
        <time>2016-05-02T16:04:38Z</time>
      </trkpt>
      <trkpt lat="48.25206" lon="2.84504">
        <ele>123</ele>
        <time>2016-05-02T16:06:38Z</time>
      </trkpt>
      <trkpt lat="48.25197" lon="2.84505">
        <ele>123</ele>
        <time>2016-05-02T16:08:38Z</time>
      </trkpt>
      <trkpt lat="48.2518" lon="2.84503">
        <ele>123</ele>
        <time>2016-05-02T16:10:38Z</time>
      </trkpt>
      <trkpt lat="48.25177" lon="2.84492">
        <ele>122</ele>
        <time>2016-05-02T16:12:38Z</time>
      </trkpt>
      <trkpt lat="48.25178" lon="2.84482">
        <ele>121</ele>
        <time>2016-05-02T16:14:38Z</time>
      </trkpt>
      <trkpt lat="48.25179" lon="2.84468">
        <ele>119</ele>
        <time>2016-05-02T16:16:38Z</time>
      </trkpt>
      <trkpt lat="48.25174" lon="2.84468">
        <ele>119</ele>
        <time>2016-05-02T16:18:38Z</time>
      </trkpt>
      <trkpt lat="48.25173" lon="2.84461">
        <ele>118</ele>
        <time>2016-05-02T16:20:38Z</time>
      </trkpt>
      <trkpt lat="48.25181" lon="2.8445">
        <ele>117</ele>
        <time>2016-05-02T16:22:38Z</time>
      </trkpt>
      <trkpt lat="48.25189" lon="2.84431">
        <ele>115</ele>
        <time>2016-05-02T16:24:38Z</time>
      </trkpt>
      <trkpt lat="48.25199" lon="2.84419">
        <ele>114</ele>
        <time>2016-05-02T16:26:38Z</time>
      </trkpt>
      <trkpt lat="48.25209" lon="2.84409">
        <ele>112</ele>
        <time>2016-05-02T16:28:38Z</time>
      </trkpt>
      <trkpt lat="48.25219" lon="2.84404">
        <ele>112</ele>
        <time>2016-05-02T16:30:38Z</time>
      </trkpt>
      <trkpt lat="48.25227" lon="2.84399">
        <ele>111</ele>
        <time>2016-05-02T16:32:38Z</time>
      </trkpt>
      <trkpt lat="48.25229" lon="2.84386">
        <ele>109</ele>
        <time>2016-05-02T16:34:38Z</time>
      </trkpt>
      <trkpt lat="48.25231" lon="2.84368">
        <ele>106</ele>
        <time>2016-05-02T16:36:38Z</time>
      </trkpt>
      <trkpt lat="48.25236" lon="2.84346">
        <ele>103</ele>
        <time>2016-05-02T16:38:38Z</time>
      </trkpt>
      <trkpt lat="48.25239" lon="2.84326">
        <ele>100</ele>
        <time>2016-05-02T16:40:38Z</time>
      </trkpt>
      <trkpt lat="48.25242" lon="2.84311">
        <ele>99</ele>
        <time>2016-05-02T16:42:38Z</time>
      </trkpt>
      <trkpt lat="48.25242" lon="2.84299">
        <ele>97</ele>
        <time>2016-05-02T16:44:38Z</time>
      </trkpt>
      <trkpt lat="48.25244" lon="2.84287">
        <ele>96</ele>
        <time>2016-05-02T16:46:38Z</time>
      </trkpt>
      <trkpt lat="48.25249" lon="2.84277">
        <ele>95</ele>
        <time>2016-05-02T16:48:38Z</time>
      </trkpt>
      <trkpt lat="48.25256" lon="2.84272">
        <ele>94</ele>
        <time>2016-05-02T16:50:38Z</time>
      </trkpt>
      <trkpt lat="48.25266" lon="2.84273">
        <ele>95</ele>
        <time>2016-05-02T16:52:38Z</time>
      </trkpt>
      <trkpt lat="48.25281" lon="2.84282">
        <ele>96</ele>
        <time>2016-05-02T16:54:38Z</time>
      </trkpt>
      <trkpt lat="48.25298" lon="2.84292">
        <ele>96</ele>
        <time>2016-05-02T16:56:38Z</time>
      </trkpt>
      <trkpt lat="48.25314" lon="2.84301">
        <ele>96</ele>
        <time>2016-05-02T16:58:38Z</time>
      </trkpt>
      <trkpt lat="48.2533" lon="2.84314">
        <ele>95</ele>
        <time>2016-05-02T17:00:38Z</time>
      </trkpt>
      <trkpt lat="48.25348" lon="2.84324">
        <ele>97</ele>
        <time>2016-05-02T17:02:38Z</time>
      </trkpt>
      <trkpt lat="48.25386" lon="2.84351">
        <ele>103</ele>
        <time>2016-05-02T17:04:38Z</time>
      </trkpt>
      <trkpt lat="48.25421" lon="2.84377">
        <ele>106</ele>
        <time>2016-05-02T17:06:38Z</time>
      </trkpt>
      <trkpt lat="48.25441" lon="2.844">
        <ele>108</ele>
        <time>2016-05-02T17:08:38Z</time>
      </trkpt>
      <trkpt lat="48.25454" lon="2.84426">
        <ele>110</ele>
        <time>2016-05-02T17:10:38Z</time>
      </trkpt>
      <trkpt lat="48.25467" lon="2.84458">
        <ele>111</ele>
        <time>2016-05-02T17:12:38Z</time>
      </trkpt>
      <trkpt lat="48.25478" lon="2.84489">
        <ele>112</ele>
        <time>2016-05-02T17:14:38Z</time>
      </trkpt>
      <trkpt lat="48.25487" lon="2.84512">
        <ele>112</ele>
        <time>2016-05-02T17:16:38Z</time>
      </trkpt>
      <trkpt lat="48.25503" lon="2.8454">
        <ele>113</ele>
        <time>2016-05-02T17:18:38Z</time>
      </trkpt>
      <trkpt lat="48.25509" lon="2.84557">
        <ele>113</ele>
        <time>2016-05-02T17:20:38Z</time>
      </trkpt>
      <trkpt lat="48.25534" lon="2.84625">
        <ele>113</ele>
        <time>2016-05-02T17:22:38Z</time>
      </trkpt>
      <trkpt lat="48.25545" lon="2.8466">
        <ele>113</ele>
        <time>2016-05-02T17:24:38Z</time>
      </trkpt>
      <trkpt lat="48.25561" lon="2.84687">
        <ele>114</ele>
        <time>2016-05-02T17:26:38Z</time>
      </trkpt>
      <trkpt lat="48.25569" lon="2.84705">
        <ele>115</ele>
        <time>2016-05-02T17:28:38Z</time>
      </trkpt>
      <trkpt lat="48.25579" lon="2.84729">
        <ele>115</ele>
        <time>2016-05-02T17:30:38Z</time>
      </trkpt>
      <trkpt lat="48.25586" lon="2.8475">
        <ele>115</ele>
        <time>2016-05-02T17:32:38Z</time>
      </trkpt>
      <trkpt lat="48.25594" lon="2.84767">
        <ele>116</ele>
        <time>2016-05-02T17:34:38Z</time>
      </trkpt>
      <trkpt lat="48.25617" lon="2.84796">
        <ele>116</ele>
        <time>2016-05-02T17:36:38Z</time>
      </trkpt>
      <trkpt lat="48.25639" lon="2.84823">
        <ele>115</ele>
        <time>2016-05-02T17:38:38Z</time>
      </trkpt>
      <trkpt lat="48.25656" lon="2.84843">
        <ele>114</ele>
        <time>2016-05-02T17:40:38Z</time>
      </trkpt>
      <trkpt lat="48.25668" lon="2.84864">
        <ele>113</ele>
        <time>2016-05-02T17:42:38Z</time>
      </trkpt>
      <trkpt lat="48.25681" lon="2.84888">
        <ele>113</ele>
        <time>2016-05-02T17:44:38Z</time>
      </trkpt>
      <trkpt lat="48.25698" lon="2.84918">
        <ele>114</ele>
        <time>2016-05-02T17:46:38Z</time>
      </trkpt>
      <trkpt lat="48.25718" lon="2.84959">
        <ele>115</ele>
        <time>2016-05-02T17:48:38Z</time>
      </trkpt>
      <trkpt lat="48.25719" lon="2.84947">
        <ele>115</ele>
        <time>2016-05-02T17:50:38Z</time>
      </trkpt>
      <trkpt lat="48.25713" lon="2.84928">
        <ele>114</ele>
        <time>2016-05-02T17:52:38Z</time>
      </trkpt>
      <trkpt lat="48.25704" lon="2.8491">
        <ele>114</ele>
        <time>2016-05-02T17:54:38Z</time>
      </trkpt>
      <trkpt lat="48.25693" lon="2.84887">
        <ele>114</ele>
        <time>2016-05-02T17:56:38Z</time>
      </trkpt>
      <trkpt lat="48.25685" lon="2.84866">
        <ele>114</ele>
        <time>2016-05-02T17:58:38Z</time>
      </trkpt>
      <trkpt lat="48.25681" lon="2.84846">
        <ele>113</ele>
        <time>2016-05-02T18:00:38Z</time>
      </trkpt>
      <trkpt lat="48.25678" lon="2.84805">
        <ele>114</ele>
        <time>2016-05-02T18:02:38Z</time>
      </trkpt>
      <trkpt lat="48.25678" lon="2.84779">
        <ele>115</ele>
        <time>2016-05-02T18:04:38Z</time>
      </trkpt>
      <trkpt lat="48.2568" lon="2.8475">
        <ele>115</ele>
        <time>2016-05-02T18:06:38Z</time>
      </trkpt>
      <trkpt lat="48.25683" lon="2.84717">
        <ele>116</ele>
        <time>2016-05-02T18:08:38Z</time>
      </trkpt>
      <trkpt lat="48.25683" lon="2.84694">
        <ele>117</ele>
        <time>2016-05-02T18:10:38Z</time>
      </trkpt>
      <trkpt lat="48.25681" lon="2.84669">
        <ele>117</ele>
        <time>2016-05-02T18:12:38Z</time>
      </trkpt>
      <trkpt lat="48.25679" lon="2.84652">
        <ele>118</ele>
        <time>2016-05-02T18:14:38Z</time>
      </trkpt>
      <trkpt lat="48.25668" lon="2.84614">
        <ele>118</ele>
        <time>2016-05-02T18:16:38Z</time>
      </trkpt>
      <trkpt lat="48.25662" lon="2.84596">
        <ele>118</ele>
        <time>2016-05-02T18:18:38Z</time>
      </trkpt>
      <trkpt lat="48.25661" lon="2.84584">
        <ele>119</ele>
        <time>2016-05-02T18:20:38Z</time>
      </trkpt>
      <trkpt lat="48.25672" lon="2.84563">
        <ele>119</ele>
        <time>2016-05-02T18:22:38Z</time>
      </trkpt>
      <trkpt lat="48.25679" lon="2.84552">
        <ele>120</ele>
        <time>2016-05-02T18:24:38Z</time>
      </trkpt>
      <trkpt lat="48.25687" lon="2.84533">
        <ele>120</ele>
        <time>2016-05-02T18:26:38Z</time>
      </trkpt>
      <trkpt lat="48.25695" lon="2.84511">
        <ele>121</ele>
        <time>2016-05-02T18:28:38Z</time>
      </trkpt>
      <trkpt lat="48.25705" lon="2.84475">
        <ele>121</ele>
        <time>2016-05-02T18:30:38Z</time>
      </trkpt>
      <trkpt lat="48.25721" lon="2.84417">
        <ele>122</ele>
        <time>2016-05-02T18:32:38Z</time>
      </trkpt>
      <trkpt lat="48.25737" lon="2.84367">
        <ele>122</ele>
        <time>2016-05-02T18:34:38Z</time>
      </trkpt>
      <trkpt lat="48.2575" lon="2.84318">
        <ele>123</ele>
        <time>2016-05-02T18:36:38Z</time>
      </trkpt>
      <trkpt lat="48.25756" lon="2.84299">
        <ele>123</ele>
        <time>2016-05-02T18:38:38Z</time>
      </trkpt>
      <trkpt lat="48.2578" lon="2.84252">
        <ele>124</ele>
        <time>2016-05-02T18:40:38Z</time>
      </trkpt>
      <trkpt lat="48.258" lon="2.84208">
        <ele>124</ele>
        <time>2016-05-02T18:42:38Z</time>
      </trkpt>
      <trkpt lat="48.25813" lon="2.84185">
        <ele>125</ele>
        <time>2016-05-02T18:44:38Z</time>
      </trkpt>
      <trkpt lat="48.25822" lon="2.84162">
        <ele>125</ele>
        <time>2016-05-02T18:46:38Z</time>
      </trkpt>
      <trkpt lat="48.25666" lon="2.83983">
        <ele>117</ele>
        <time>2016-05-02T18:48:38Z</time>
      </trkpt>
      <trkpt lat="48.25657" lon="2.83972">
        <ele>117</ele>
        <time>2016-05-02T18:50:38Z</time>
      </trkpt>
      <trkpt lat="48.25648" lon="2.83949">
        <ele>117</ele>
        <time>2016-05-02T18:52:38Z</time>
      </trkpt>
      <trkpt lat="48.25643" lon="2.83923">
        <ele>117</ele>
        <time>2016-05-02T18:54:38Z</time>
      </trkpt>
      <trkpt lat="48.25628" lon="2.83849">
        <ele>117</ele>
        <time>2016-05-02T18:56:38Z</time>
      </trkpt>
      <trkpt lat="48.25616" lon="2.83803">
        <ele>117</ele>
        <time>2016-05-02T18:58:38Z</time>
      </trkpt>
      <trkpt lat="48.25599" lon="2.83747">
        <ele>116</ele>
        <time>2016-05-02T19:00:38Z</time>
      </trkpt>
      <trkpt lat="48.25589" lon="2.83712">
        <ele>117</ele>
        <time>2016-05-02T19:02:38Z</time>
      </trkpt>
      <trkpt lat="48.25584" lon="2.83687">
        <ele>117</ele>
        <time>2016-05-02T19:04:38Z</time>
      </trkpt>
      <trkpt lat="48.25581" lon="2.83665">
        <ele>117</ele>
        <time>2016-05-02T19:06:38Z</time>
      </trkpt>
      <trkpt lat="48.25579" lon="2.83646">
        <ele>118</ele>
        <time>2016-05-02T19:08:38Z</time>
      </trkpt>
      <trkpt lat="48.25577" lon="2.83617">
        <ele>119</ele>
        <time>2016-05-02T19:10:38Z</time>
      </trkpt>
      <trkpt lat="48.25576" lon="2.83587">
        <ele>120</ele>
        <time>2016-05-02T19:12:38Z</time>
      </trkpt>
      <trkpt lat="48.25562" lon="2.83547">
        <ele>120</ele>
        <time>2016-05-02T19:14:38Z</time>
      </trkpt>
      <trkpt lat="48.2555" lon="2.83499">
        <ele>120</ele>
        <time>2016-05-02T19:16:38Z</time>
      </trkpt>
      <trkpt lat="48.2555" lon="2.83484">
        <ele>120</ele>
        <time>2016-05-02T19:18:38Z</time>
      </trkpt>
      <trkpt lat="48.25554" lon="2.8347">
        <ele>120</ele>
        <time>2016-05-02T19:20:38Z</time>
      </trkpt>
      <trkpt lat="48.25558" lon="2.83457">
        <ele>120</ele>
        <time>2016-05-02T19:22:38Z</time>
      </trkpt>
      <trkpt lat="48.25561" lon="2.83434">
        <ele>121</ele>
        <time>2016-05-02T19:24:38Z</time>
      </trkpt>
      <trkpt lat="48.25561" lon="2.83416">
        <ele>121</ele>
        <time>2016-05-02T19:26:38Z</time>
      </trkpt>
      <trkpt lat="48.25561" lon="2.83395">
        <ele>121</ele>
        <time>2016-05-02T19:28:38Z</time>
      </trkpt>
      <trkpt lat="48.25561" lon="2.83378">
        <ele>121</ele>
        <time>2016-05-02T19:30:38Z</time>
      </trkpt>
      <trkpt lat="48.25562" lon="2.83368">
        <ele>121</ele>
        <time>2016-05-02T19:32:38Z</time>
      </trkpt>
      <trkpt lat="48.25567" lon="2.83356">
        <ele>121</ele>
        <time>2016-05-02T19:34:38Z</time>
      </trkpt>
      <trkpt lat="48.25572" lon="2.83342">
        <ele>120</ele>
        <time>2016-05-02T19:36:38Z</time>
      </trkpt>
      <trkpt lat="48.25579" lon="2.83333">
        <ele>120</ele>
        <time>2016-05-02T19:38:38Z</time>
      </trkpt>
      <trkpt lat="48.25582" lon="2.83321">
        <ele>120</ele>
        <time>2016-05-02T19:40:38Z</time>
      </trkpt>
      <trkpt lat="48.25589" lon="2.83297">
        <ele>119</ele>
        <time>2016-05-02T19:42:38Z</time>
      </trkpt>
      <trkpt lat="48.25589" lon="2.83281">
        <ele>119</ele>
        <time>2016-05-02T19:44:38Z</time>
      </trkpt>
      <trkpt lat="48.25595" lon="2.83272">
        <ele>118</ele>
        <time>2016-05-02T19:46:38Z</time>
      </trkpt>
      <trkpt lat="48.25602" lon="2.83272">
        <ele>118</ele>
        <time>2016-05-02T19:48:38Z</time>
      </trkpt>
      <trkpt lat="48.25615" lon="2.83277">
        <ele>118</ele>
        <time>2016-05-02T19:50:38Z</time>
      </trkpt>
      <trkpt lat="48.25627" lon="2.8328">
        <ele>118</ele>
        <time>2016-05-02T19:52:38Z</time>
      </trkpt>
      <trkpt lat="48.25635" lon="2.83279">
        <ele>118</ele>
        <time>2016-05-02T19:54:38Z</time>
      </trkpt>
      <trkpt lat="48.25646" lon="2.83271">
        <ele>118</ele>
        <time>2016-05-02T19:56:38Z</time>
      </trkpt>
      <trkpt lat="48.25661" lon="2.83262">
        <ele>117</ele>
        <time>2016-05-02T19:58:38Z</time>
      </trkpt>
      <trkpt lat="48.25658" lon="2.83239">
        <ele>116</ele>
        <time>2016-05-02T20:00:38Z</time>
      </trkpt>
      <trkpt lat="48.25651" lon="2.8319">
        <ele>114</ele>
        <time>2016-05-02T20:02:38Z</time>
      </trkpt>
      <trkpt lat="48.25645" lon="2.83155">
        <ele>113</ele>
        <time>2016-05-02T20:04:38Z</time>
      </trkpt>
      <trkpt lat="48.25645" lon="2.83138">
        <ele>112</ele>
        <time>2016-05-02T20:06:38Z</time>
      </trkpt>
      <trkpt lat="48.25645" lon="2.83122">
        <ele>111</ele>
        <time>2016-05-02T20:08:38Z</time>
      </trkpt>
      <trkpt lat="48.25642" lon="2.8311">
        <ele>110</ele>
        <time>2016-05-02T20:10:38Z</time>
      </trkpt>
      <trkpt lat="48.25635" lon="2.83087">
        <ele>107</ele>
        <time>2016-05-02T20:12:38Z</time>
      </trkpt>
      <trkpt lat="48.25627" lon="2.83063">
        <ele>106</ele>
        <time>2016-05-02T20:14:38Z</time>
      </trkpt>
      <trkpt lat="48.25621" lon="2.83049">
        <ele>105</ele>
        <time>2016-05-02T20:16:38Z</time>
      </trkpt>
      <trkpt lat="48.25615" lon="2.83038">
        <ele>105</ele>
        <time>2016-05-02T20:18:38Z</time>
      </trkpt>
      <trkpt lat="48.25623" lon="2.83031">
        <ele>106</ele>
        <time>2016-05-02T20:20:38Z</time>
      </trkpt>
      <trkpt lat="48.25627" lon="2.83016">
        <ele>106</ele>
        <time>2016-05-02T20:22:38Z</time>
      </trkpt>
      <trkpt lat="48.25633" lon="2.82997">
        <ele>107</ele>
        <time>2016-05-02T20:24:38Z</time>
      </trkpt>
      <trkpt lat="48.25638" lon="2.82984">
        <ele>108</ele>
        <time>2016-05-02T20:26:38Z</time>
      </trkpt>
      <trkpt lat="48.25646" lon="2.82965">
        <ele>110</ele>
        <time>2016-05-02T20:28:38Z</time>
      </trkpt>
      <trkpt lat="48.25649" lon="2.82955">
        <ele>111</ele>
        <time>2016-05-02T20:30:38Z</time>
      </trkpt>
      <trkpt lat="48.25653" lon="2.82945">
        <ele>112</ele>
        <time>2016-05-02T20:32:38Z</time>
      </trkpt>
      <trkpt lat="48.25659" lon="2.82938">
        <ele>113</ele>
        <time>2016-05-02T20:34:38Z</time>
      </trkpt>
      <trkpt lat="48.25669" lon="2.82931">
        <ele>114</ele>
        <time>2016-05-02T20:36:38Z</time>
      </trkpt>
      <trkpt lat="48.25678" lon="2.82927">
        <ele>116</ele>
        <time>2016-05-02T20:38:38Z</time>
      </trkpt>
      <trkpt lat="48.25675" lon="2.8291">
        <ele>116</ele>
        <time>2016-05-02T20:40:38Z</time>
      </trkpt>
      <trkpt lat="48.25669" lon="2.82864">
        <ele>118</ele>
        <time>2016-05-02T20:42:38Z</time>
      </trkpt>
      <trkpt lat="48.25666" lon="2.82842">
        <ele>119</ele>
        <time>2016-05-02T20:44:38Z</time>
      </trkpt>
      <trkpt lat="48.25666" lon="2.82825">
        <ele>120</ele>
        <time>2016-05-02T20:46:38Z</time>
      </trkpt>
      <trkpt lat="48.25667" lon="2.82814">
        <ele>120</ele>
        <time>2016-05-02T20:48:38Z</time>
      </trkpt>
      <trkpt lat="48.25678" lon="2.8279">
        <ele>121</ele>
        <time>2016-05-02T20:50:38Z</time>
      </trkpt>
      <trkpt lat="48.25682" lon="2.8277">
        <ele>122</ele>
        <time>2016-05-02T20:52:38Z</time>
      </trkpt>
      <trkpt lat="48.25685" lon="2.82747">
        <ele>122</ele>
        <time>2016-05-02T20:54:38Z</time>
      </trkpt>
      <trkpt lat="48.2569" lon="2.82707">
        <ele>123</ele>
        <time>2016-05-02T20:56:38Z</time>
      </trkpt>
      <trkpt lat="48.25695" lon="2.8268">
        <ele>124</ele>
        <time>2016-05-02T20:58:38Z</time>
      </trkpt>
      <trkpt lat="48.25698" lon="2.82657">
        <ele>124</ele>
        <time>2016-05-02T21:00:38Z</time>
      </trkpt>
      <trkpt lat="48.25705" lon="2.82639">
        <ele>125</ele>
        <time>2016-05-02T21:02:38Z</time>
      </trkpt>
      <trkpt lat="48.25712" lon="2.82619">
        <ele>125</ele>
        <time>2016-05-02T21:04:38Z</time>
      </trkpt>
      <trkpt lat="48.25714" lon="2.82607">
        <ele>125</ele>
        <time>2016-05-02T21:06:38Z</time>
      </trkpt>
      <trkpt lat="48.25718" lon="2.8259">
        <ele>125</ele>
        <time>2016-05-02T21:08:38Z</time>
      </trkpt>
      <trkpt lat="48.25719" lon="2.82571">
        <ele>124</ele>
        <time>2016-05-02T21:10:38Z</time>
      </trkpt>
      <trkpt lat="48.25721" lon="2.82556">
        <ele>124</ele>
        <time>2016-05-02T21:12:38Z</time>
      </trkpt>
      <trkpt lat="48.25728" lon="2.82543">
        <ele>125</ele>
        <time>2016-05-02T21:14:38Z</time>
      </trkpt>
      <trkpt lat="48.25735" lon="2.82528">
        <ele>125</ele>
        <time>2016-05-02T21:16:38Z</time>
      </trkpt>
      <trkpt lat="48.25744" lon="2.82518">
        <ele>126</ele>
        <time>2016-05-02T21:18:38Z</time>
      </trkpt>
      <trkpt lat="48.2575" lon="2.8251">
        <ele>126</ele>
        <time>2016-05-02T21:20:38Z</time>
      </trkpt>
      <trkpt lat="48.2576" lon="2.825">
        <ele>126</ele>
        <time>2016-05-02T21:22:38Z</time>
      </trkpt>
      <trkpt lat="48.25778" lon="2.8249">
        <ele>127</ele>
        <time>2016-05-02T21:24:38Z</time>
      </trkpt>
      <trkpt lat="48.25793" lon="2.82486">
        <ele>128</ele>
        <time>2016-05-02T21:26:38Z</time>
      </trkpt>
      <trkpt lat="48.25808" lon="2.82483">
        <ele>128</ele>
        <time>2016-05-02T21:28:38Z</time>
      </trkpt>
      <trkpt lat="48.25825" lon="2.82474">
        <ele>128</ele>
        <time>2016-05-02T21:30:38Z</time>
      </trkpt>
      <trkpt lat="48.25836" lon="2.82461">
        <ele>128</ele>
        <time>2016-05-02T21:32:38Z</time>
      </trkpt>
      <trkpt lat="48.25847" lon="2.8244">
        <ele>128</ele>
        <time>2016-05-02T21:34:38Z</time>
      </trkpt>
      <trkpt lat="48.25855" lon="2.82417">
        <ele>127</ele>
        <time>2016-05-02T21:36:38Z</time>
      </trkpt>
      <trkpt lat="48.25856" lon="2.824">
        <ele>127</ele>
        <time>2016-05-02T21:38:38Z</time>
      </trkpt>
      <trkpt lat="48.25857" lon="2.82377">
        <ele>127</ele>
        <time>2016-05-02T21:40:38Z</time>
      </trkpt>
      <trkpt lat="48.25859" lon="2.82353">
        <ele>126</ele>
        <time>2016-05-02T21:42:38Z</time>
      </trkpt>
      <trkpt lat="48.2586" lon="2.82332">
        <ele>126</ele>
        <time>2016-05-02T21:44:38Z</time>
      </trkpt>
      <trkpt lat="48.25864" lon="2.82306">
        <ele>127</ele>
        <time>2016-05-02T21:46:38Z</time>
      </trkpt>
      <trkpt lat="48.25868" lon="2.82285">
        <ele>128</ele>
        <time>2016-05-02T21:48:38Z</time>
      </trkpt>
      <trkpt lat="48.25869" lon="2.8227">
        <ele>128</ele>
        <time>2016-05-02T21:50:38Z</time>
      </trkpt>
      <trkpt lat="48.25875" lon="2.82255">
        <ele>129</ele>
        <time>2016-05-02T21:52:38Z</time>
      </trkpt>
      <trkpt lat="48.25878" lon="2.8224">
        <ele>129</ele>
        <time>2016-05-02T21:54:38Z</time>
      </trkpt>
      <trkpt lat="48.25883" lon="2.82212">
        <ele>128</ele>
        <time>2016-05-02T21:56:38Z</time>
      </trkpt>
      <trkpt lat="48.25884" lon="2.82198">
        <ele>128</ele>
        <time>2016-05-02T21:58:38Z</time>
      </trkpt>
      <trkpt lat="48.25887" lon="2.82187">
        <ele>128</ele>
        <time>2016-05-02T22:00:38Z</time>
      </trkpt>
      <trkpt lat="48.25901" lon="2.82166">
        <ele>127</ele>
        <time>2016-05-02T22:02:38Z</time>
      </trkpt>
      <trkpt lat="48.25907" lon="2.82148">
        <ele>126</ele>
        <time>2016-05-02T22:04:38Z</time>
      </trkpt>
      <trkpt lat="48.25915" lon="2.82127">
        <ele>125</ele>
        <time>2016-05-02T22:06:38Z</time>
      </trkpt>
      <trkpt lat="48.25929" lon="2.82093">
        <ele>123</ele>
        <time>2016-05-02T22:08:38Z</time>
      </trkpt>
      <trkpt lat="48.25937" lon="2.82068">
        <ele>123</ele>
        <time>2016-05-02T22:10:38Z</time>
      </trkpt>
      <trkpt lat="48.25948" lon="2.82034">
        <ele>123</ele>
        <time>2016-05-02T22:12:38Z</time>
      </trkpt>
      <trkpt lat="48.25958" lon="2.8201">
        <ele>124</ele>
        <time>2016-05-02T22:14:38Z</time>
      </trkpt>
      <trkpt lat="48.25966" lon="2.81999">
        <ele>124</ele>
        <time>2016-05-02T22:16:38Z</time>
      </trkpt>
      <trkpt lat="48.25973" lon="2.81995">
        <ele>124</ele>
        <time>2016-05-02T22:18:38Z</time>
      </trkpt>
      <trkpt lat="48.25982" lon="2.81983">
        <ele>125</ele>
        <time>2016-05-02T22:20:38Z</time>
      </trkpt>
      <trkpt lat="48.2599" lon="2.8197">
        <ele>125</ele>
        <time>2016-05-02T22:22:38Z</time>
      </trkpt>
      <trkpt lat="48.26001" lon="2.81954">
        <ele>126</ele>
        <time>2016-05-02T22:24:38Z</time>
      </trkpt>
      <trkpt lat="48.26011" lon="2.81935">
        <ele>126</ele>
        <time>2016-05-02T22:26:38Z</time>
      </trkpt>
      <trkpt lat="48.26018" lon="2.81924">
        <ele>126</ele>
        <time>2016-05-02T22:28:38Z</time>
      </trkpt>
      <trkpt lat="48.26022" lon="2.819">
        <ele>126</ele>
        <time>2016-05-02T22:30:38Z</time>
      </trkpt>
      <trkpt lat="48.26023" lon="2.81888">
        <ele>125</ele>
        <time>2016-05-02T22:32:38Z</time>
      </trkpt>
      <trkpt lat="48.26029" lon="2.81882">
        <ele>125</ele>
        <time>2016-05-02T22:34:38Z</time>
      </trkpt>
      <trkpt lat="48.26023" lon="2.8183">
        <ele>124</ele>
        <time>2016-05-02T22:36:38Z</time>
      </trkpt>
      <trkpt lat="48.26016" lon="2.81803">
        <ele>123</ele>
        <time>2016-05-02T22:38:38Z</time>
      </trkpt>
      <trkpt lat="48.26014" lon="2.81786">
        <ele>122</ele>
        <time>2016-05-02T22:40:38Z</time>
      </trkpt>
      <trkpt lat="48.26011" lon="2.81767">
        <ele>121</ele>
        <time>2016-05-02T22:42:38Z</time>
      </trkpt>
      <trkpt lat="48.2601" lon="2.81741">
        <ele>120</ele>
        <time>2016-05-02T22:44:38Z</time>
      </trkpt>
      <trkpt lat="48.26008" lon="2.81725">
        <ele>118</ele>
        <time>2016-05-02T22:46:38Z</time>
      </trkpt>
      <trkpt lat="48.26008" lon="2.81712">
        <ele>117</ele>
        <time>2016-05-02T22:48:38Z</time>
      </trkpt>
      <trkpt lat="48.26003" lon="2.81711">
        <ele>117</ele>
        <time>2016-05-02T22:50:38Z</time>
      </trkpt>
      <trkpt lat="48.25998" lon="2.81703">
        <ele>117</ele>
        <time>2016-05-02T22:52:38Z</time>
      </trkpt>
      <trkpt lat="48.25993" lon="2.81678">
        <ele>114</ele>
        <time>2016-05-02T22:54:38Z</time>
      </trkpt>
      <trkpt lat="48.25985" lon="2.81653">
        <ele>112</ele>
        <time>2016-05-02T22:56:38Z</time>
      </trkpt>
      <trkpt lat="48.25966" lon="2.81615">
        <ele>108</ele>
        <time>2016-05-02T22:58:38Z</time>
      </trkpt>
      <trkpt lat="48.25961" lon="2.81604">
        <ele>106</ele>
        <time>2016-05-02T23:00:38Z</time>
      </trkpt>
      <trkpt lat="48.25953" lon="2.81595">
        <ele>105</ele>
        <time>2016-05-02T23:02:38Z</time>
      </trkpt>
      <trkpt lat="48.25945" lon="2.81585">
        <ele>103</ele>
        <time>2016-05-02T23:04:38Z</time>
      </trkpt>
      <trkpt lat="48.25938" lon="2.81573">
        <ele>102</ele>
        <time>2016-05-02T23:06:38Z</time>
      </trkpt>
      <trkpt lat="48.2593" lon="2.81545">
        <ele>98</ele>
        <time>2016-05-02T23:08:38Z</time>
      </trkpt>
      <trkpt lat="48.25924" lon="2.81523">
        <ele>95</ele>
        <time>2016-05-02T23:10:38Z</time>
      </trkpt>
      <trkpt lat="48.25921" lon="2.81508">
        <ele>93</ele>
        <time>2016-05-02T23:12:38Z</time>
      </trkpt>
      <trkpt lat="48.25919" lon="2.81493">
        <ele>91</ele>
        <time>2016-05-02T23:14:38Z</time>
      </trkpt>
      <trkpt lat="48.2592" lon="2.81473">
        <ele>90</ele>
        <time>2016-05-02T23:16:38Z</time>
      </trkpt>
      <trkpt lat="48.25923" lon="2.81446">
        <ele>89</ele>
        <time>2016-05-02T23:18:38Z</time>
      </trkpt>
      <trkpt lat="48.25928" lon="2.81417">
        <ele>89</ele>
        <time>2016-05-02T23:20:38Z</time>
      </trkpt>
      <trkpt lat="48.2593" lon="2.81398">
        <ele>88</ele>
        <time>2016-05-02T23:22:38Z</time>
      </trkpt>
      <trkpt lat="48.25933" lon="2.81381">
        <ele>87</ele>
        <time>2016-05-02T23:24:38Z</time>
      </trkpt>
      <trkpt lat="48.25938" lon="2.81367">
        <ele>87</ele>
        <time>2016-05-02T23:26:38Z</time>
      </trkpt>
      <trkpt lat="48.25944" lon="2.81348">
        <ele>87</ele>
        <time>2016-05-02T23:28:38Z</time>
      </trkpt>
      <trkpt lat="48.25946" lon="2.81329">
        <ele>86</ele>
        <time>2016-05-02T23:30:38Z</time>
      </trkpt>
      <trkpt lat="48.25947" lon="2.81308">
        <ele>85</ele>
        <time>2016-05-02T23:32:38Z</time>
      </trkpt>
      <trkpt lat="48.25949" lon="2.81296">
        <ele>85</ele>
        <time>2016-05-02T23:34:38Z</time>
      </trkpt>
      <trkpt lat="48.25949" lon="2.81278">
        <ele>84</ele>
        <time>2016-05-02T23:36:38Z</time>
      </trkpt>
      <trkpt lat="48.25889" lon="2.81206">
        <ele>77</ele>
        <time>2016-05-02T23:38:38Z</time>
      </trkpt>
      <trkpt lat="48.25874" lon="2.81231">
        <ele>78</ele>
        <time>2016-05-02T23:40:38Z</time>
      </trkpt>
      <trkpt lat="48.25874" lon="2.81242">
        <ele>78</ele>
        <time>2016-05-02T23:42:38Z</time>
      </trkpt>
    </trkseg>
  </trk>
</gpx>